Observation Tools

--Other-- (Other)


Project BudBurst Plant Group: Basic (Other)


Live Map for --Other--

Other years available for viewing:

Below you can view all observations that have been reported in for --Other-- (If the map below is empty then there have not been any observations reported.)

Use the navigation buttons on the left to zoom in/out and pan around. Click on each place marker to get detail information about that observation.

Leaf/Needles/Stalk = Leaf/Needles/Stalk Flower = Flower Pollen = Pollen Fruiting = Fruiting Color = Color

--Back to Top--

close help window button

The table below displays all the data that has been submitted to Project BudBurst. By default, the data is sorted by the date on which the phenophase occurred. Clicking the up and down arrows next to each column name allows you to sort on any value. If there have been more than 10 observations submitted, you can choose how many to display at a time using the "Show __ entries" control. You can also page through the data using the previous and next buttons at the bottom right of the table.

The Search box allows you to search all of the data. Searching by date, species, phenophase, etc. is easy—just start typing and the table will immediately change to contain only observations that contain your search phrase. Do you want to see only 2012 observations? Just type "2012" in the search box. Only want to see maples? Enter "Acer." You can combine searches, too! Searching for "acer 2012" will narrow your results to only the maples that were observed in 2012 (assuming that any observations exist, of course).

Once you have your results in the order desired, you can use any of the buttons above the search box to copy the results to the clipboard; save them as a text, or spreadsheet; or even print them from your browser!

Observational data for --Other--:

help button
Date Contributor Common Name Species Phenophase Latitude Longitude Obs#
Sat Feb 02 00:00:00 GMT 2008 Mollimizz --Other-- Other First Leaf 34.584700000000000 -117.407000000000000 54
Sun Jan 06 00:00:00 GMT 2008 anonymous --Other-- Other First Flower 36.253100000000000 -93.520700000000000 95
Fri Feb 22 00:00:00 GMT 2008 anonymous --Other-- Other Full Flower 36.253100000000000 -93.520700000000000 96
Fri Feb 15 00:00:00 GMT 2008 anonymous --Other-- Other First Flower 33.690000000000000 -117.680000000000000 107
Tue Feb 19 00:00:00 GMT 2008 anonymous --Other-- Other Full Flower 33.690000000000000 -117.680000000000000 108
Fri Feb 15 00:00:00 GMT 2008 anonymous --Other-- Other First Leaf 38.504500000000000 -77.110000000000000 120
Fri Feb 15 00:00:00 GMT 2008 Threeness --Other-- Other First Leaf 38.504500000000000 -77.110000000000000 124
Wed Feb 27 00:00:00 GMT 2008 Mollimizz --Other-- Other First Flower 34.584700000000000 -117.407000000000000 136
Tue Jan 01 00:00:00 GMT 2008 anonymous --Other-- Other First Leaf 35.220000000000000 -80.800000000000000 144
Wed Jan 30 00:00:00 GMT 2008 anonymous --Other-- Other All Leaves Unfolded 35.220000000000000 -80.800000000000000 145
Wed Feb 20 00:00:00 GMT 2008 anonymous --Other-- Other First Flower 35.220000000000000 -80.800000000000000 146
Sun Feb 10 00:00:00 GMT 2008 anonymous --Other-- Other First Leaf 35.220000000000000 -80.800000000000000 147
Wed Feb 27 00:00:00 GMT 2008 anonymous --Other-- Other First Leaf 33.220000000000000 -80.800000000000000 151
Tue Jan 15 00:00:00 GMT 2008 anonymous --Other-- Other First Leaf 33.220000000000000 -80.800000000000000 152
Thu Jan 31 00:00:00 GMT 2008 anonymous --Other-- Other All Leaves Unfolded 33.220000000000000 -80.800000000000000 153
Sat Feb 16 00:00:00 GMT 2008 anonymous --Other-- Other First Flower 33.220000000000000 -80.800000000000000 154
Sun Mar 02 00:00:00 GMT 2008 anonymous --Other-- Other First Flower 26.005500000000000 -80.195700000000000 215
Fri Feb 29 00:00:00 GMT 2008 anonymous --Other-- Other First Leaf 35.508200000000000 -87.770400000000000 220
Tue Jan 01 00:00:00 GMT 2008 anonymous --Other-- Other First Flower 25.677900000000000 -80.912100000000000 252
Fri Feb 01 00:00:00 GMT 2008 anonymous --Other-- Other First Leaf 36.000000000000000 -80.000000000000000 285
Fri Feb 29 00:00:00 GMT 2008 anonymous --Other-- Other First Flower 36.000000000000000 -80.000000000000000 286
Mon Feb 11 00:00:00 GMT 2008 anonymous --Other-- Other First Leaf 48.747700000000000 -122.522000000000000 287
Wed Jan 09 00:00:00 GMT 2008 anonymous --Other-- Other First Leaf 48.747700000000000 -122.522000000000000 288
Sun Feb 03 00:00:00 GMT 2008 anonymous --Other-- Other All Leaves Unfolded 48.747700000000000 -122.522000000000000 289
Fri Feb 15 00:00:00 GMT 2008 anonymous --Other-- Other First Flower 48.747700000000000 -122.522000000000000 290
Mon Feb 25 00:00:00 GMT 2008 anonymous --Other-- Other First Leaf 40.734400000000000 -73.785500000000000 317
Fri Feb 22 00:00:00 GMT 2008 anonymous --Other-- Other First Flower 29.616100000000000 -98.513200000000000 318
Tue Feb 26 00:00:00 GMT 2008 anonymous --Other-- Other Full Flower 29.616100000000000 -98.513200000000000 319
Thu Feb 28 00:00:00 GMT 2008 anonymous --Other-- Other First Leaf 27.222200000000000 -80.353500000000000 340
Wed Mar 05 00:00:00 GMT 2008 anonymous --Other-- Other First Flower 27.222200000000000 -80.353500000000000 341
Wed Mar 05 00:00:00 GMT 2008 anonymous --Other-- Other First Leaf 42.254500000000000 -71.091200000000000 347
Wed Mar 05 00:00:00 GMT 2008 anonymous --Other-- Other First Leaf 33.651000000000000 -81.362200000000000 360
Tue Mar 04 00:00:00 GMT 2008 anonymous --Other-- Other End of Flowering 39.759000000000000 -121.815000000000000 376
Sun Feb 17 00:00:00 GMT 2008 anonymous --Other-- Other First Flower 26.000000000000000 -80.000000000000000 397
Wed Mar 05 00:00:00 GMT 2008 anonymous --Other-- Other Full Flower 26.000000000000000 -80.000000000000000 398
Wed Mar 05 00:00:00 GMT 2008 anonymous --Other-- Other First Flower 41.300000000000000 -121.300000000000000 440
Thu Mar 06 00:00:00 GMT 2008 anonymous --Other-- Other Full Flower 41.300000000000000 -121.300000000000000 441
Sun Mar 09 00:00:00 GMT 2008 anonymous --Other-- Other First Flower 45.680000000000000 -110.770000000000000 457
Sun Mar 09 00:00:00 GMT 2008 anonymous --Other-- Other Full Flower 45.680000000000000 -110.770000000000000 458
Mon Mar 10 00:00:00 GMT 2008 anonymous --Other-- Other First Leaf 38.644700000000000 -121.251000000000000 459
Fri Mar 07 00:00:00 GMT 2008 anonymous --Other-- Other First Leaf 40.926800000000000 -100.163000000000000 465
Sun Mar 09 00:00:00 GMT 2008 anonymous --Other-- Other All Leaves Unfolded 40.926800000000000 -100.163000000000000 466
Fri Mar 07 00:00:00 GMT 2008 Mollimizz --Other-- Other Full Flower 34.584700000000000 -117.407000000000000 492
Mon Mar 10 00:00:00 GMT 2008 anonymous --Other-- Other First Leaf 39.952200000000000 -105.276000000000000 537
Sat Mar 15 00:00:00 GMT 2008 birdyhop --Other-- Other First Flower 37.838700000000000 -122.271000000000000 572
Thu Apr 03 00:00:00 GMT 2008 anonymous --Other-- Other First Leaf 39.984700000000000 -104.985000000000000 654
Sat Mar 15 00:00:00 GMT 2008 anonymous --Other-- Other First Leaf 33.447000000000000 -84.147200000000000 659
Fri Mar 14 00:00:00 GMT 2008 anonymous --Other-- Other First Leaf 43.666400000000000 -123.792000000000000 722
Sun Mar 16 00:00:00 GMT 2008 anonymous --Other-- Other First Flower 29.663000000000000 -82.334700000000000 730
Sat Mar 15 00:00:00 GMT 2008 anonymous --Other-- Other First Leaf 40.946100000000000 -89.535000000000000 733
Thu Feb 28 00:00:00 GMT 2008 anonymous --Other-- Other First Leaf 34.229800000000000 -118.097000000000000 743
Sat Mar 22 00:00:00 GMT 2008 anonymous --Other-- Other First Leaf 41.209700000000000 -104.797000000000000 841
Sun Mar 23 00:00:00 GMT 2008 anonymous --Other-- Other Full Flower 31.821000000000000 -111.018000000000000 928
Tue Mar 25 00:00:00 GMT 2008 anonymous --Other-- Other First Leaf 37.574300000000000 -77.455400000000000 942
Thu Mar 27 00:00:00 GMT 2008 anonymous --Other-- Other First Flower 31.821000000000000 -111.000000000000000 945
Thu Mar 27 00:00:00 GMT 2008 anonymous --Other-- Other Full Flower 31.821000000000000 -111.018000000000000 946
Thu Mar 27 00:00:00 GMT 2008 anonymous --Other-- Other Full Flower 31.821000000000000 -111.018000000000000 947
Sat Mar 29 00:00:00 GMT 2008 anonymous --Other-- Other Full Flower 38.744600000000000 -92.226800000000000 1053
Tue Mar 11 00:00:00 GMT 2008 anonymous --Other-- Other First Leaf 38.744600000000000 -92.226800000000000 1054
Sat Mar 29 00:00:00 GMT 2008 anonymous --Other-- Other First Flower 43.313900000000000 -88.273500000000000 1055
Fri Mar 21 00:00:00 GMT 2008 anonymous --Other-- Other First Leaf 39.348000000000000 -97.461700000000000 1086
Tue Mar 25 00:00:00 GMT 2008 anonymous --Other-- Other Full Flower 39.348000000000000 -97.461700000000000 1087
Thu Apr 03 00:00:00 GMT 2008 anonymous --Other-- Other Full Flower 34.766600000000000 -92.369600000000000 1180
Sat Mar 29 00:00:00 GMT 2008 anonymous --Other-- Other First Flower 43.105700000000000 -89.352500000000000 1184
Mon Mar 03 00:00:00 GMT 2008 anonymous --Other-- Other First Flower 48.300400000000000 -122.278000000000000 1202
Wed Apr 02 00:00:00 GMT 2008 anonymous --Other-- Other First Flower 41.000000000000000 -87.000000000000000 1203
Wed Mar 19 00:00:00 GMT 2008 anonymous --Other-- Other First Flower 42.141300000000000 -88.018200000000000 1215
Mon Apr 07 00:00:00 GMT 2008 anonymous --Other-- Other First Flower 38.744600000000000 -92.226800000000000 1434
Wed Apr 09 00:00:00 GMT 2008 anonymous --Other-- Other First Flower 38.744600000000000 -92.226800000000000 1435
Thu Apr 10 00:00:00 GMT 2008 anonymous --Other-- Other First Flower 31.821000000000000 -111.018000000000000 1539
Thu Apr 10 00:00:00 GMT 2008 anonymous --Other-- Other First Flower 31.821000000000000 -111.018000000000000 1540
Thu Apr 10 00:00:00 GMT 2008 anonymous --Other-- Other Full Flower 31.821000000000000 -111.018000000000000 1541
Wed Apr 09 00:00:00 GMT 2008 anonymous --Other-- Other Full Flower 31.821000000000000 -111.018000000000000 1542
Sat Apr 12 00:00:00 GMT 2008 anonymous --Other-- Other First Flower 32.710000000000000 -117.000000000000000 1593
Sat Apr 12 00:00:00 GMT 2008 anonymous --Other-- Other Full Flower 32.710000000000000 -117.000000000000000 1596
Sat Apr 12 00:00:00 GMT 2008 anonymous --Other-- Other Full Flower 32.710000000000000 -117.000000000000000 1597
Sat Apr 12 00:00:00 GMT 2008 anonymous --Other-- Other Full Flower 32.710000000000000 -117.000000000000000 1598
Sat Apr 12 00:00:00 GMT 2008 anonymous --Other-- Other First Flower 47.658900000000000 -117.425000000000000 1602
Tue Mar 04 00:00:00 GMT 2008 anonymous --Other-- Other First Leaf 39.240800000000000 -77.234900000000000 1668
Tue Apr 15 00:00:00 GMT 2008 anonymous --Other-- Other First Flower 42.080000000000000 -87.820000000000000 1691
Tue Apr 01 00:00:00 GMT 2008 anonymous --Other-- Other First Leaf 38.913600000000000 -80.833400000000000 1695
Tue Apr 01 00:00:00 GMT 2008 anonymous --Other-- Other All Leaves Unfolded 38.913600000000000 -80.833400000000000 1696
Thu Apr 03 00:00:00 GMT 2008 anonymous --Other-- Other First Flower 38.913600000000000 -80.833400000000000 1697
Mon Apr 14 00:00:00 GMT 2008 anonymous --Other-- Other First Flower 46.322500000000000 -121.558000000000000 1760
Mon Apr 14 00:00:00 GMT 2008 anonymous --Other-- Other First Flower 46.322500000000000 -121.558000000000000 1761
Mon Apr 14 00:00:00 GMT 2008 anonymous --Other-- Other First Flower 46.322500000000000 -121.556000000000000 1762
Mon Apr 14 00:00:00 GMT 2008 anonymous --Other-- Other First Flower 46.322500000000000 -121.558000000000000 1763
Mon Apr 14 00:00:00 GMT 2008 anonymous --Other-- Other First Flower 46.322500000000000 -121.556000000000000 1764
Mon Apr 14 00:00:00 GMT 2008 anonymous --Other-- Other First Flower 46.322500000000000 -121.556000000000000 1765
Wed Apr 16 00:00:00 GMT 2008 anonymous --Other-- Other First Flower 41.500000000000000 -87.700000000000000 1797
Tue Apr 08 00:00:00 GMT 2008 anonymous --Other-- Other All Leaves Unfolded 41.707800000000000 -80.881200000000000 1821
Tue Apr 08 00:00:00 GMT 2008 anonymous --Other-- Other Full Flower 41.707800000000000 -80.881200000000000 1822
Wed Apr 16 00:00:00 GMT 2008 anonymous --Other-- Other All Leaves Unfolded 41.591000000000000 -81.084300000000000 1823
Wed Apr 16 00:00:00 GMT 2008 anonymous --Other-- Other First Flower 41.591000000000000 -81.084300000000000 1824
Fri Apr 18 00:00:00 GMT 2008 anonymous --Other-- Other First Leaf 41.499400000000000 -87.744100000000000 1839
Sat Apr 12 00:00:00 GMT 2008 anonymous --Other-- Other All Leaves Unfolded 40.954100000000000 -74.152400000000000 1840
Sat Apr 12 00:00:00 GMT 2008 anonymous --Other-- Other First Flower 40.954100000000000 -74.152400000000000 1841
Sat Apr 12 00:00:00 GMT 2008 anonymous --Other-- Other Full Flower 40.954100000000000 -74.152400000000000 1842
Sun Apr 20 00:00:00 GMT 2008 anonymous --Other-- Other First Flower 38.744600000000000 -92.226800000000000 1905
Wed Apr 16 00:00:00 GMT 2008 anonymous --Other-- Other First Flower 38.744600000000000 -92.226800000000000 1906
Sun Apr 20 00:00:00 GMT 2008 anonymous --Other-- Other Full Flower 38.744600000000000 -92.226800000000000 1907
Mon Apr 21 00:00:00 GMT 2008 anonymous --Other-- Other First Leaf 42.113600000000000 -91.128200000000000 1964
Mon Apr 21 00:00:00 GMT 2008 anonymous --Other-- Other First Flower 39.143200000000000 -104.547000000000000 2011
Tue Apr 15 00:00:00 GMT 2008 anonymous --Other-- Other First Flower 38.744600000000000 -92.226800000000000 2029
Mon Apr 21 00:00:00 GMT 2008 anonymous --Other-- Other Full Flower 38.744600000000000 -92.226800000000000 2030
Wed Apr 16 00:00:00 GMT 2008 anonymous --Other-- Other First Leaf 38.744600000000000 -92.226800000000000 2031
Tue Apr 22 00:00:00 GMT 2008 anonymous --Other-- Other First Flower 38.744600000000000 -92.226800000000000 2032
Wed Apr 23 00:00:00 GMT 2008 anonymous --Other-- Other First Flower 45.053700000000000 -92.812700000000000 2283
Wed Apr 23 00:00:00 GMT 2008 anonymous --Other-- Other First Leaf 45.053700000000000 -92.812700000000000 2284
Wed Apr 23 00:00:00 GMT 2008 anonymous --Other-- Other All Leaves Unfolded 44.969800000000000 -93.229900000000000 2285
Tue Apr 15 00:00:00 GMT 2008 anonymous --Other-- Other First Leaf 40.172200000000000 -105.063000000000000 2293
Tue Apr 22 00:00:00 GMT 2008 anonymous --Other-- Other First Leaf 41.270000000000000 -74.590000000000000 2553
Sun Apr 27 00:00:00 GMT 2008 anonymous --Other-- Other All Leaves Unfolded 41.270000000000000 -74.590000000000000 2554
Wed Apr 23 00:00:00 GMT 2008 anonymous --Other-- Other First Leaf 45.053700000000000 -92.812700000000000 2622
Thu Apr 24 00:00:00 GMT 2008 anonymous --Other-- Other First Leaf 45.053700000000000 -92.812700000000000 2623
Sun Apr 27 00:00:00 GMT 2008 anonymous --Other-- Other First Leaf 41.121100000000000 -81.888300000000000 2646
Sat Apr 05 00:00:00 GMT 2008 anonymous --Other-- Other First Leaf 42.228900000000000 -88.137400000000000 2686
Mon Apr 14 00:00:00 GMT 2008 anonymous --Other-- Other All Leaves Unfolded 42.228900000000000 -88.137400000000000 2687
Sun Apr 20 00:00:00 GMT 2008 anonymous --Other-- Other First Flower 42.228900000000000 -88.137400000000000 2688
Mon Apr 28 00:00:00 GMT 2008 anonymous --Other-- Other Full Flower 42.228900000000000 -88.137400000000000 2689
Mon Apr 28 00:00:00 GMT 2008 anonymous --Other-- Other First Flower 39.658700000000000 -79.987300000000000 2694
Tue Apr 29 00:00:00 GMT 2008 anonymous --Other-- Other First Leaf 45.053700000000000 -92.812700000000000 2726
Tue Apr 29 00:00:00 GMT 2008 anonymous --Other-- Other First Leaf 45.053700000000000 -92.812700000000000 2727
Sat Apr 26 00:00:00 GMT 2008 anonymous --Other-- Other First Leaf 45.053700000000000 -92.812700000000000 2728
Fri Apr 25 00:00:00 GMT 2008 anonymous --Other-- Other First Leaf 45.053700000000000 -92.812700000000000 2729
Thu Feb 14 00:00:00 GMT 2008 rsweeney5 --Other-- Other First Leaf 33.975800000000000 -118.360000000000000 2767
Thu Feb 28 00:00:00 GMT 2008 rsweeney5 --Other-- Other All Leaves Unfolded 33.975800000000000 -118.360000000000000 2768
Sun Feb 10 00:00:00 GMT 2008 rsweeney5 --Other-- Other First Flower 33.975800000000000 -118.360000000000000 2769
Sat Feb 16 00:00:00 GMT 2008 rsweeney5 --Other-- Other Full Flower 33.975800000000000 -118.360000000000000 2770
Fri Feb 01 00:00:00 GMT 2008 anonymous --Other-- Other First Leaf 42.286100000000000 -87.885600000000000 2887
Fri Feb 15 00:00:00 GMT 2008 anonymous --Other-- Other All Leaves Unfolded 42.286100000000000 -87.885600000000000 2888
Mon Feb 25 00:00:00 GMT 2008 anonymous --Other-- Other First Flower 42.286100000000000 -87.885600000000000 2889
Mon Mar 03 00:00:00 GMT 2008 anonymous --Other-- Other End of Flowering 42.286100000000000 -87.885600000000000 2891
Fri Mar 07 00:00:00 GMT 2008 anonymous --Other-- Other First Ripe Fruit 42.286100000000000 -87.885600000000000 2892
Tue Apr 22 00:00:00 GMT 2008 anonymous --Other-- Other First Leaf 40.640800000000000 -73.932100000000000 2982
Thu Apr 24 00:00:00 GMT 2008 anonymous --Other-- Other All Leaves Unfolded 40.640800000000000 -73.932100000000000 2983
Mon Apr 21 00:00:00 GMT 2008 anonymous --Other-- Other First Flower 40.640800000000000 -73.932100000000000 2984
Thu Apr 24 00:00:00 GMT 2008 anonymous --Other-- Other Full Flower 40.640800000000000 -73.932100000000000 2985
Fri Apr 25 00:00:00 GMT 2008 anonymous --Other-- Other End of Flowering 40.640800000000000 -73.932100000000000 2986
Fri Mar 28 00:00:00 GMT 2008 anonymous --Other-- Other First Leaf 42.197500000000000 -88.090300000000000 3001
Thu Apr 10 00:00:00 GMT 2008 anonymous --Other-- Other All Leaves Unfolded 42.197500000000000 -88.090300000000000 3002
Fri Apr 25 00:00:00 GMT 2008 anonymous --Other-- Other First Flower 42.197500000000000 -88.090300000000000 3003
Fri May 02 00:00:00 GMT 2008 anonymous --Other-- Other Full Flower 42.197500000000000 -88.090300000000000 3004
Tue May 06 00:00:00 GMT 2008 anonymous --Other-- Other End of Flowering 42.197500000000000 -88.090300000000000 3005
Fri Mar 28 00:00:00 GMT 2008 anonymous --Other-- Other First Leaf 42.197500000000000 -88.090300000000000 3006
Thu Apr 10 00:00:00 GMT 2008 anonymous --Other-- Other All Leaves Unfolded 42.197500000000000 -88.090300000000000 3007
Fri Apr 25 00:00:00 GMT 2008 anonymous --Other-- Other First Flower 42.197500000000000 -88.090300000000000 3008
Fri May 02 00:00:00 GMT 2008 anonymous --Other-- Other Full Flower 42.197500000000000 -88.090300000000000 3009
Tue May 06 00:00:00 GMT 2008 anonymous --Other-- Other End of Flowering 42.197500000000000 -88.090300000000000 3010
Tue Apr 22 00:00:00 GMT 2008 anonymous --Other-- Other First Leaf 42.057400000000000 -88.341100000000000 3072
Wed Apr 30 00:00:00 GMT 2008 anonymous --Other-- Other All Leaves Unfolded 42.057400000000000 -88.341100000000000 3073
Thu May 01 00:00:00 GMT 2008 anonymous --Other-- Other First Flower 42.057400000000000 -88.341100000000000 3074
Sat May 03 00:00:00 GMT 2008 anonymous --Other-- Other Full Flower 42.057400000000000 -88.341100000000000 3075
Sun Jan 20 00:00:00 GMT 2008 anonymous --Other-- Other First Leaf 42.286100000000000 -87.885600000000000 3078
Thu Jan 31 00:00:00 GMT 2008 anonymous --Other-- Other All Leaves Unfolded 42.286100000000000 -87.885600000000000 3079
Tue Feb 05 00:00:00 GMT 2008 anonymous --Other-- Other First Flower 42.286100000000000 -87.885600000000000 3080
Sun Feb 10 00:00:00 GMT 2008 anonymous --Other-- Other Full Flower 42.286100000000000 -87.885600000000000 3081
Mon Feb 25 00:00:00 GMT 2008 anonymous --Other-- Other End of Flowering 42.286100000000000 -87.885600000000000 3082
Fri May 02 00:00:00 GMT 2008 anonymous --Other-- Other First Leaf 45.053700000000000 -92.812700000000000 3146
Tue Apr 29 00:00:00 GMT 2008 anonymous --Other-- Other First Flower 29.270100000000000 -81.087100000000000 3162
Fri May 02 00:00:00 GMT 2008 anonymous --Other-- Other Full Flower 29.270100000000000 -81.087100000000000 3163
Sat May 10 00:00:00 GMT 2008 anonymous --Other-- Other End of Flowering 29.270100000000000 -81.087100000000000 3164
Thu May 08 00:00:00 GMT 2008 anonymous --Other-- Other End of Flowering 41.021600000000000 -81.739900000000000 3223
Thu May 08 00:00:00 GMT 2008 anonymous --Other-- Other Full Flower 41.021600000000000 -81.739900000000000 3224
Thu May 08 00:00:00 GMT 2008 anonymous --Other-- Other First Leaf 41.021500000000000 -81.739700000000000 3225
Thu May 08 00:00:00 GMT 2008 anonymous --Other-- Other First Flower 41.021500000000000 -81.739700000000000 3226
Thu May 08 00:00:00 GMT 2008 anonymous --Other-- Other Full Flower 41.021600000000000 -81.739900000000000 3229
Thu May 08 00:00:00 GMT 2008 anonymous --Other-- Other Full Flower 41.020400000000000 -81.739500000000000 3230
Thu May 08 00:00:00 GMT 2008 anonymous --Other-- Other Full Flower 41.023700000000000 -81.734000000000000 3231
Thu May 08 00:00:00 GMT 2008 anonymous --Other-- Other All Leaves Unfolded 41.021300000000000 -81.739700000000000 3232
Thu May 08 00:00:00 GMT 2008 anonymous --Other-- Other Full Flower 41.021300000000000 -81.739700000000000 3233
Thu May 08 00:00:00 GMT 2008 anonymous --Other-- Other All Leaves Unfolded 41.021300000000000 -81.739700000000000 3234
Thu May 08 00:00:00 GMT 2008 anonymous --Other-- Other Full Flower 41.021300000000000 -81.739700000000000 3235
Thu May 08 00:00:00 GMT 2008 anonymous --Other-- Other Full Flower 41.021600000000000 -81.739900000000000 3236
Thu May 08 00:00:00 GMT 2008 anonymous --Other-- Other First Leaf 41.021500000000000 -81.739700000000000 3237
Thu May 08 00:00:00 GMT 2008 anonymous --Other-- Other All Leaves Unfolded 41.021500000000000 -81.739700000000000 3238
Thu May 08 00:00:00 GMT 2008 anonymous --Other-- Other Full Flower 41.021500000000000 -81.739700000000000 3239
Thu May 08 00:00:00 GMT 2008 anonymous --Other-- Other First Flower 41.023700000000000 -81.734000000000000 3240
Thu May 08 00:00:00 GMT 2008 anonymous --Other-- Other All Leaves Unfolded 41.021300000000000 -81.739700000000000 3241
Thu May 08 00:00:00 GMT 2008 anonymous --Other-- Other Full Flower 41.021300000000000 -81.739700000000000 3242
Thu May 08 00:00:00 GMT 2008 anonymous --Other-- Other Full Flower 41.000000000000000 -81.000000000000000 3243
Thu May 08 00:00:00 GMT 2008 anonymous --Other-- Other Full Flower 41.000000000000000 -81.000000000000000 3244
Thu May 08 00:00:00 GMT 2008 anonymous --Other-- Other First Leaf 41.021500000000000 -81.739700000000000 3245
Thu May 08 00:00:00 GMT 2008 anonymous --Other-- Other All Leaves Unfolded 41.021500000000000 -81.739700000000000 3246
Thu May 08 00:00:00 GMT 2008 anonymous --Other-- Other Full Flower 41.021500000000000 -81.739700000000000 3247
Thu May 08 00:00:00 GMT 2008 anonymous --Other-- Other Full Flower 41.023700000000000 -81.734000000000000 3248
Thu May 08 00:00:00 GMT 2008 anonymous --Other-- Other Full Flower 41.000000000000000 -81.000000000000000 3249
Thu May 08 00:00:00 GMT 2008 anonymous --Other-- Other First Flower 41.021600000000000 -81.739900000000000 3251
Thu May 08 00:00:00 GMT 2008 anonymous --Other-- Other First Leaf 41.021300000000000 -81.739700000000000 3255
Thu May 08 00:00:00 GMT 2008 anonymous --Other-- Other First Leaf 41.021300000000000 -81.739700000000000 3256
Thu May 08 00:00:00 GMT 2008 anonymous --Other-- Other First Flower 41.023700000000000 -81.734000000000000 3257
Thu May 08 00:00:00 GMT 2008 anonymous --Other-- Other First Flower 41.023700000000000 -81.734000000000000 3258
Thu May 08 00:00:00 GMT 2008 anonymous --Other-- Other First Leaf 41.020400000000000 -81.739500000000000 3260
Thu May 08 00:00:00 GMT 2008 anonymous --Other-- Other Full Flower 41.021500000000000 -81.739500000000000 3261
Thu May 08 00:00:00 GMT 2008 anonymous --Other-- Other Full Flower 41.021500000000000 -81.739500000000000 3262
Thu May 08 00:00:00 GMT 2008 anonymous --Other-- Other Full Flower 41.000000000000000 -81.000000000000000 3263
Thu May 08 00:00:00 GMT 2008 anonymous --Other-- Other First Leaf 41.021500000000000 -81.739700000000000 3266
Thu May 08 00:00:00 GMT 2008 anonymous --Other-- Other All Leaves Unfolded 41.021500000000000 -81.739700000000000 3267
Thu May 08 00:00:00 GMT 2008 anonymous --Other-- Other Full Flower 41.021500000000000 -81.739700000000000 3268
Thu May 08 00:00:00 GMT 2008 anonymous --Other-- Other Full Flower 41.023700000000000 -81.734000000000000 3275
Thu May 08 00:00:00 GMT 2008 anonymous --Other-- Other Full Flower 41.023700000000000 -81.734000000000000 3276
Thu May 08 00:00:00 GMT 2008 anonymous --Other-- Other Full Flower 41.023700000000000 -81.734000000000000 3277
Thu May 08 00:00:00 GMT 2008 anonymous --Other-- Other All Leaves Unfolded 41.020400000000000 -81.739500000000000 3278
Thu May 08 00:00:00 GMT 2008 anonymous --Other-- Other First Flower 41.023100000000000 -81.738900000000000 3279
Thu May 08 00:00:00 GMT 2008 anonymous --Other-- Other All Leaves Unfolded 41.024100000000000 -81.733000000000000 3284
Mon May 12 00:00:00 GMT 2008 anonymous --Other-- Other First Leaf 41.020400000000000 -81.739500000000000 3285
Mon May 12 00:00:00 GMT 2008 anonymous --Other-- Other First Leaf 41.020400000000000 -81.739500000000000 3286
Thu May 08 00:00:00 GMT 2008 anonymous --Other-- Other First Leaf 41.021500000000000 -81.739700000000000 3287
Thu May 08 00:00:00 GMT 2008 anonymous --Other-- Other All Leaves Unfolded 41.021500000000000 -81.739700000000000 3288
Thu May 08 00:00:00 GMT 2008 anonymous --Other-- Other Full Flower 41.021500000000000 -81.739700000000000 3289
Thu May 08 00:00:00 GMT 2008 anonymous --Other-- Other Full Flower 41.000000000000000 -81.000000000000000 3290
Thu May 08 00:00:00 GMT 2008 anonymous --Other-- Other All Leaves Unfolded 41.021500000000000 -81.739500000000000 3291
Thu May 08 00:00:00 GMT 2008 anonymous --Other-- Other All Leaves Unfolded 41.021500000000000 -81.739500000000000 3292
Thu May 08 00:00:00 GMT 2008 anonymous --Other-- Other All Leaves Unfolded 41.021500000000000 -81.739500000000000 3293
Thu May 08 00:00:00 GMT 2008 anonymous --Other-- Other Full Flower 41.024100000000000 -81.733000000000000 3296
Thu May 08 00:00:00 GMT 2008 anonymous --Other-- Other Full Flower 41.021000000000000 -81.739400000000000 3297
Thu May 08 00:00:00 GMT 2008 anonymous --Other-- Other All Leaves Unfolded 41.020400000000000 -81.739500000000000 3298
Mon May 12 00:00:00 GMT 2008 anonymous --Other-- Other First Leaf 41.020400000000000 -81.739500000000000 3299
Mon May 12 00:00:00 GMT 2008 anonymous --Other-- Other First Leaf 41.020400000000000 -81.739500000000000 3300
Thu May 08 00:00:00 GMT 2008 anonymous --Other-- Other First Flower 41.000000000000000 -81.000000000000000 3302
Thu May 08 00:00:00 GMT 2008 anonymous --Other-- Other All Leaves Unfolded 41.021500000000000 -81.739500000000000 3304
Thu May 08 00:00:00 GMT 2008 anonymous --Other-- Other All Leaves Unfolded 41.024100000000000 -81.733000000000000 3305
Thu May 08 00:00:00 GMT 2008 anonymous --Other-- Other Full Flower 41.023100000000000 -81.738900000000000 3312
Thu May 08 00:00:00 GMT 2008 anonymous --Other-- Other Full Flower 41.000000000000000 -81.000000000000000 3314
Thu May 08 00:00:00 GMT 2008 anonymous --Other-- Other Full Flower 41.021600000000000 -81.739900000000000 3315
Thu May 08 00:00:00 GMT 2008 anonymous --Other-- Other First Flower 41.029700000000000 -81.738600000000000 3334
Thu May 08 00:00:00 GMT 2008 anonymous --Other-- Other All Leaves Unfolded 41.029700000000000 -81.738600000000000 3335
Thu May 08 00:00:00 GMT 2008 anonymous --Other-- Other All Leaves Unfolded 41.021400000000000 -81.739100000000000 3336
Thu May 08 00:00:00 GMT 2008 anonymous --Other-- Other All Leaves Unfolded 41.029700000000000 -81.738600000000000 3337
Thu May 08 00:00:00 GMT 2008 anonymous --Other-- Other Full Flower 41.021600000000000 -81.739600000000000 3340
Thu May 08 00:00:00 GMT 2008 anonymous --Other-- Other End of Flowering 41.011600000000000 -81.442400000000000 3341
Thu May 08 00:00:00 GMT 2008 anonymous --Other-- Other All Leaves Unfolded 41.029700000000000 -81.738600000000000 3342
Thu May 08 00:00:00 GMT 2008 anonymous --Other-- Other First Leaf 41.011600000000000 -81.442400000000000 3344
Thu May 08 00:00:00 GMT 2008 anonymous --Other-- Other First Leaf 41.011600000000000 -81.442400000000000 3349
Thu May 08 00:00:00 GMT 2008 anonymous --Other-- Other First Leaf 41.011600000000000 -81.442400000000000 3364
Mon May 12 00:00:00 GMT 2008 anonymous --Other-- Other End of Flowering 41.021400000000000 -81.739100000000000 3370
Thu May 08 00:00:00 GMT 2008 anonymous --Other-- Other Full Flower 41.021400000000000 -81.739100000000000 3371
Thu May 08 00:00:00 GMT 2008 anonymous --Other-- Other Full Flower 41.011600000000000 -81.442400000000000 3374
Thu May 08 00:00:00 GMT 2008 anonymous --Other-- Other Full Flower 41.011600000000000 -81.442400000000000 3375
Thu May 08 00:00:00 GMT 2008 anonymous --Other-- Other All Leaves Unfolded 41.021600000000000 -81.739600000000000 3379
Thu May 08 00:00:00 GMT 2008 anonymous --Other-- Other First Leaf 41.021400000000000 -81.739100000000000 3381
Thu May 08 00:00:00 GMT 2008 anonymous --Other-- Other All Leaves Unfolded 41.021400000000000 -81.739100000000000 3382
Thu May 08 00:00:00 GMT 2008 anonymous --Other-- Other First Flower 41.021400000000000 -81.739100000000000 3383
Thu May 08 00:00:00 GMT 2008 anonymous --Other-- Other Full Flower 41.021400000000000 -81.739100000000000 3384
Thu May 08 00:00:00 GMT 2008 anonymous --Other-- Other End of Flowering 41.021400000000000 -81.739100000000000 3385
Thu May 08 00:00:00 GMT 2008 anonymous --Other-- Other First Ripe Fruit 41.021400000000000 -81.739100000000000 3386
Thu May 08 00:00:00 GMT 2008 anonymous --Other-- Other First Flower 41.021400000000000 -81.739100000000000 3387
Thu May 08 00:00:00 GMT 2008 anonymous --Other-- Other End of Flowering 41.021500000000000 -81.739600000000000 3388
Thu May 08 00:00:00 GMT 2008 anonymous --Other-- Other First Flower 41.021400000000000 -81.739100000000000 3392
Mon May 05 00:00:00 GMT 2008 anonymous --Other-- Other First Flower 41.021400000000000 -81.739100000000000 3393
Thu May 08 00:00:00 GMT 2008 anonymous --Other-- Other First Leaf 41.021400000000000 -81.739100000000000 3394
Thu May 08 00:00:00 GMT 2008 anonymous --Other-- Other All Leaves Unfolded 41.021400000000000 -81.739100000000000 3395
Thu May 08 00:00:00 GMT 2008 anonymous --Other-- Other First Flower 41.021400000000000 -81.739100000000000 3396
Thu May 08 00:00:00 GMT 2008 anonymous --Other-- Other Full Flower 41.021400000000000 -81.739100000000000 3397
Thu May 08 00:00:00 GMT 2008 anonymous --Other-- Other End of Flowering 41.021400000000000 -81.739100000000000 3398
Thu May 08 00:00:00 GMT 2008 anonymous --Other-- Other First Ripe Fruit 41.021400000000000 -81.739100000000000 3399
Thu May 08 00:00:00 GMT 2008 anonymous --Other-- Other First Leaf 41.021400000000000 -81.739100000000000 3400
Thu May 08 00:00:00 GMT 2008 anonymous --Other-- Other First Flower 41.021400000000000 -81.739100000000000 3401
Thu May 08 00:00:00 GMT 2008 anonymous --Other-- Other Full Flower 41.021700000000000 -81.739600000000000 3403
Thu May 08 00:00:00 GMT 2008 anonymous --Other-- Other Full Flower 41.021700000000000 -81.739600000000000 3404
Thu May 08 00:00:00 GMT 2008 anonymous --Other-- Other Full Flower 41.021400000000000 -81.739100000000000 3405
Thu May 08 00:00:00 GMT 2008 anonymous --Other-- Other Full Flower 41.021400000000000 -81.739100000000000 3406
Thu May 08 00:00:00 GMT 2008 anonymous --Other-- Other First Leaf 41.021400000000000 -81.739100000000000 3407
Thu May 08 00:00:00 GMT 2008 anonymous --Other-- Other All Leaves Unfolded 41.021400000000000 -81.739100000000000 3408
Thu May 08 00:00:00 GMT 2008 anonymous --Other-- Other First Flower 41.021400000000000 -81.739100000000000 3409
Thu May 08 00:00:00 GMT 2008 anonymous --Other-- Other Full Flower 41.021400000000000 -81.739100000000000 3410
Thu May 08 00:00:00 GMT 2008 anonymous --Other-- Other End of Flowering 41.021400000000000 -81.739100000000000 3411
Thu May 08 00:00:00 GMT 2008 anonymous --Other-- Other First Ripe Fruit 41.021400000000000 -81.739100000000000 3412
Thu May 08 00:00:00 GMT 2008 anonymous --Other-- Other First Leaf 41.021400000000000 -81.739100000000000 3413
Thu May 08 00:00:00 GMT 2008 anonymous --Other-- Other All Leaves Unfolded 41.021400000000000 -81.739100000000000 3414
Thu May 08 00:00:00 GMT 2008 anonymous --Other-- Other First Flower 41.021400000000000 -81.739100000000000 3415
Thu May 08 00:00:00 GMT 2008 anonymous --Other-- Other Full Flower 41.021400000000000 -81.739100000000000 3416
Thu May 08 00:00:00 GMT 2008 anonymous --Other-- Other End of Flowering 41.021400000000000 -81.739100000000000 3417
Thu May 08 00:00:00 GMT 2008 anonymous --Other-- Other First Ripe Fruit 41.021400000000000 -81.739100000000000 3418
Thu May 08 00:00:00 GMT 2008 anonymous --Other-- Other First Leaf 41.021400000000000 -81.739100000000000 3419
Thu May 08 00:00:00 GMT 2008 anonymous --Other-- Other All Leaves Unfolded 41.021400000000000 -81.739100000000000 3420
Thu May 08 00:00:00 GMT 2008 anonymous --Other-- Other First Flower 41.021400000000000 -81.739100000000000 3421
Thu May 08 00:00:00 GMT 2008 anonymous --Other-- Other Full Flower 41.021400000000000 -81.739100000000000 3422
Thu May 08 00:00:00 GMT 2008 anonymous --Other-- Other End of Flowering 41.021400000000000 -81.739100000000000 3423
Thu May 08 00:00:00 GMT 2008 anonymous --Other-- Other First Ripe Fruit 41.021400000000000 -81.739100000000000 3424
Thu May 08 00:00:00 GMT 2008 anonymous --Other-- Other First Leaf 41.021400000000000 -81.739100000000000 3425
Thu May 08 00:00:00 GMT 2008 anonymous --Other-- Other All Leaves Unfolded 41.021400000000000 -81.739100000000000 3426
Thu May 08 00:00:00 GMT 2008 anonymous --Other-- Other First Flower 41.021400000000000 -81.739100000000000 3427
Thu May 08 00:00:00 GMT 2008 anonymous --Other-- Other Full Flower 41.021400000000000 -81.739100000000000 3428
Thu May 08 00:00:00 GMT 2008 anonymous --Other-- Other End of Flowering 41.021400000000000 -81.739100000000000 3429
Thu May 08 00:00:00 GMT 2008 anonymous --Other-- Other First Ripe Fruit 41.021400000000000 -81.739100000000000 3430
Mon May 12 00:00:00 GMT 2008 anonymous --Other-- Other First Flower 41.021400000000000 -81.739100000000000 3431
Thu May 08 00:00:00 GMT 2008 anonymous --Other-- Other All Leaves Unfolded 41.021400000000000 -81.739100000000000 3434
Thu May 08 00:00:00 GMT 2008 anonymous --Other-- Other Full Flower 41.021500000000000 -81.739600000000000 3435
Thu May 08 00:00:00 GMT 2008 anonymous --Other-- Other End of Flowering 41.021400000000000 -81.739100000000000 3436
Thu May 08 00:00:00 GMT 2008 anonymous --Other-- Other End of Flowering 41.021400000000000 -81.739100000000000 3437
Thu May 08 00:00:00 GMT 2008 anonymous --Other-- Other End of Flowering 41.021400000000000 -81.739100000000000 3438
Thu May 08 00:00:00 GMT 2008 anonymous --Other-- Other End of Flowering 41.021400000000000 -81.739100000000000 3439
Thu May 08 00:00:00 GMT 2008 anonymous --Other-- Other End of Flowering 41.021400000000000 -81.739100000000000 3440
Thu May 08 00:00:00 GMT 2008 anonymous --Other-- Other End of Flowering 41.021400000000000 -81.739100000000000 3441
Thu May 08 00:00:00 GMT 2008 anonymous --Other-- Other End of Flowering 41.021400000000000 -81.739100000000000 3442
Thu May 08 00:00:00 GMT 2008 anonymous --Other-- Other End of Flowering 41.021400000000000 -81.739100000000000 3443
Thu May 08 00:00:00 GMT 2008 anonymous --Other-- Other End of Flowering 41.021400000000000 -81.739100000000000 3444
Thu May 08 00:00:00 GMT 2008 anonymous --Other-- Other End of Flowering 41.021400000000000 -81.739100000000000 3445
Thu May 08 00:00:00 GMT 2008 anonymous --Other-- Other End of Flowering 41.021400000000000 -81.739100000000000 3446
Thu May 08 00:00:00 GMT 2008 anonymous --Other-- Other End of Flowering 41.021400000000000 -81.739100000000000 3447
Thu May 08 00:00:00 GMT 2008 anonymous --Other-- Other End of Flowering 41.021400000000000 -81.739100000000000 3448
Thu May 08 00:00:00 GMT 2008 anonymous --Other-- Other End of Flowering 41.021400000000000 -81.739100000000000 3449
Thu May 08 00:00:00 GMT 2008 anonymous --Other-- Other End of Flowering 41.021400000000000 -81.739100000000000 3450
Thu May 08 00:00:00 GMT 2008 anonymous --Other-- Other End of Flowering 41.021400000000000 -81.739100000000000 3451
Thu May 08 00:00:00 GMT 2008 anonymous --Other-- Other End of Flowering 41.021400000000000 -81.739100000000000 3452
Thu May 08 00:00:00 GMT 2008 anonymous --Other-- Other End of Flowering 41.021400000000000 -81.739100000000000 3453
Thu May 08 00:00:00 GMT 2008 anonymous --Other-- Other First Leaf 41.021400000000000 -81.739100000000000 3454
Thu May 08 00:00:00 GMT 2008 anonymous --Other-- Other All Leaves Unfolded 41.021400000000000 -81.739100000000000 3455
Thu May 08 00:00:00 GMT 2008 anonymous --Other-- Other First Flower 41.021400000000000 -81.739100000000000 3456
Thu May 08 00:00:00 GMT 2008 anonymous --Other-- Other Full Flower 41.021400000000000 -81.739100000000000 3457
Thu May 08 00:00:00 GMT 2008 anonymous --Other-- Other End of Flowering 41.021400000000000 -81.739100000000000 3458
Thu May 08 00:00:00 GMT 2008 anonymous --Other-- Other First Ripe Fruit 41.021400000000000 -81.739100000000000 3459
Thu May 08 00:00:00 GMT 2008 anonymous --Other-- Other First Leaf 41.021400000000000 -81.739100000000000 3460
Thu May 08 00:00:00 GMT 2008 anonymous --Other-- Other All Leaves Unfolded 41.021400000000000 -81.739100000000000 3461
Thu May 08 00:00:00 GMT 2008 anonymous --Other-- Other First Flower 41.021400000000000 -81.739100000000000 3462
Thu May 08 00:00:00 GMT 2008 anonymous --Other-- Other Full Flower 41.021400000000000 -81.739100000000000 3463
Thu May 08 00:00:00 GMT 2008 anonymous --Other-- Other End of Flowering 41.021400000000000 -81.739100000000000 3464
Thu May 08 00:00:00 GMT 2008 anonymous --Other-- Other First Ripe Fruit 41.021400000000000 -81.739100000000000 3465
Thu May 08 00:00:00 GMT 2008 anonymous --Other-- Other First Leaf 41.021400000000000 -81.739100000000000 3466
Thu May 08 00:00:00 GMT 2008 anonymous --Other-- Other All Leaves Unfolded 41.021400000000000 -81.739100000000000 3467
Thu May 08 00:00:00 GMT 2008 anonymous --Other-- Other First Flower 41.021400000000000 -81.739100000000000 3468
Thu May 08 00:00:00 GMT 2008 anonymous --Other-- Other Full Flower 41.021400000000000 -81.739100000000000 3469
Thu May 08 00:00:00 GMT 2008 anonymous --Other-- Other End of Flowering 41.021400000000000 -81.739100000000000 3470
Thu May 08 00:00:00 GMT 2008 anonymous --Other-- Other First Ripe Fruit 41.021400000000000 -81.739100000000000 3471
Thu May 08 00:00:00 GMT 2008 anonymous --Other-- Other Full Flower 41.021400000000000 -81.739100000000000 3472
Mon May 12 00:00:00 GMT 2008 anonymous --Other-- Other End of Flowering 41.021400000000000 -81.739100000000000 3473
Thu May 08 00:00:00 GMT 2008 anonymous --Other-- Other Full Flower 41.021500000000000 -81.739600000000000 3474
Sat Apr 19 00:00:00 GMT 2008 anonymous --Other-- Other First Leaf 40.356200000000000 -73.561100000000000 3634
Sun Apr 27 00:00:00 GMT 2008 anonymous --Other-- Other All Leaves Unfolded 40.356200000000000 -73.561100000000000 3635
Sun May 04 00:00:00 GMT 2008 anonymous --Other-- Other First Flower 40.356200000000000 -73.561100000000000 3636
Mon Apr 28 00:00:00 GMT 2008 anonymous --Other-- Other First Leaf 35.930500000000000 -84.125900000000000 3673
Mon May 05 00:00:00 GMT 2008 anonymous --Other-- Other All Leaves Unfolded 35.930500000000000 -84.125900000000000 3674
Fri Apr 11 00:00:00 GMT 2008 anonymous --Other-- Other First Leaf 42.000000000000000 -71.000000000000000 3735
Mon May 12 00:00:00 GMT 2008 anonymous --Other-- Other All Leaves Unfolded 42.000000000000000 -71.000000000000000 3736
Wed Apr 16 00:00:00 GMT 2008 anonymous --Other-- Other First Flower 42.000000000000000 -71.000000000000000 3737
Wed May 21 00:00:00 GMT 2008 anonymous --Other-- Other Full Flower 42.000000000000000 -71.000000000000000 3738
Wed Apr 30 00:00:00 GMT 2008 anonymous --Other-- Other First Leaf 42.000000000000000 -72.000000000000000 3739
Wed May 21 00:00:00 GMT 2008 anonymous --Other-- Other All Leaves Unfolded 42.000000000000000 -72.000000000000000 3740
Wed Apr 30 00:00:00 GMT 2008 anonymous --Other-- Other First Leaf 42.000000000000000 -71.000000000000000 3748
Mon May 12 00:00:00 GMT 2008 anonymous --Other-- Other All Leaves Unfolded 42.000000000000000 -71.000000000000000 3749
Thu Apr 03 00:00:00 GMT 2008 anonymous --Other-- Other First Leaf 26.000000000000000 -80.000000000000000 3956
Thu Apr 03 00:00:00 GMT 2008 anonymous --Other-- Other All Leaves Unfolded 26.000000000000000 -80.000000000000000 3957
Sat Mar 08 00:00:00 GMT 2008 anonymous --Other-- Other First Flower 26.000000000000000 -80.000000000000000 3958
Wed Jul 02 00:00:00 GMT 2008 anonymous --Other-- Other Full Flower 26.000000000000000 -80.000000000000000 3959
Fri May 16 00:00:00 GMT 2008 anonymous --Other-- Other First Leaf 45.686700000000000 -111.170000000000000 4223
Thu May 22 00:00:00 GMT 2008 anonymous --Other-- Other First Flower 46.779100000000000 -92.082400000000000 4291
Fri May 30 00:00:00 GMT 2008 anonymous --Other-- Other Full Flower 46.779100000000000 -92.082400000000000 4292
Fri May 23 00:00:00 GMT 2008 anonymous --Other-- Other First Flower 46.779100000000000 -92.082400000000000 4293
Sat May 17 00:00:00 GMT 2008 anonymous --Other-- Other All Leaves Unfolded 46.779100000000000 -92.082400000000000 4294
Fri Jun 06 00:00:00 GMT 2008 anonymous --Other-- Other First Flower 46.779100000000000 -92.082400000000000 4295
Fri May 23 00:00:00 GMT 2008 anonymous --Other-- Other All Leaves Unfolded 46.779100000000000 -92.082400000000000 4296
Fri Jun 06 00:00:00 GMT 2008 anonymous --Other-- Other Full Flower 46.779100000000000 -92.082400000000000 4297
Fri May 23 00:00:00 GMT 2008 anonymous --Other-- Other First Leaf 46.779100000000000 -92.082400000000000 4298
Thu Jun 12 00:00:00 GMT 2008 anonymous --Other-- Other Full Flower 46.779100000000000 -92.082400000000000 4299
Tue Jun 03 00:00:00 GMT 2008 anonymous --Other-- Other First Flower 46.779100000000000 -92.108200000000000 4300
Tue Jun 10 00:00:00 GMT 2008 anonymous --Other-- Other Full Flower 46.779100000000000 -92.108200000000000 4301
Thu Jun 26 00:00:00 GMT 2008 anonymous --Other-- Other End of Flowering 46.779100000000000 -92.108200000000000 4302
Thu May 08 00:00:00 GMT 2008 anonymous --Other-- Other First Leaf 46.779100000000000 -92.108200000000000 4303
Thu May 15 00:00:00 GMT 2008 anonymous --Other-- Other All Leaves Unfolded 46.779100000000000 -92.108200000000000 4304
Thu Jun 19 00:00:00 GMT 2008 anonymous --Other-- Other First Flower 46.779100000000000 -92.108200000000000 4305
Thu Jun 26 00:00:00 GMT 2008 anonymous --Other-- Other Full Flower 46.779100000000000 -92.108200000000000 4306
Mon Jul 28 00:00:00 GMT 2008 anonymous --Other-- Other End of Flowering 32.710000000000000 -117.000000000000000 4558
Mon Jul 28 00:00:00 GMT 2008 anonymous --Other-- Other First Leaf 32.710000000000000 -117.000000000000000 4559
Mon Jul 28 00:00:00 GMT 2008 anonymous --Other-- Other Full Flower 32.710000000000000 -117.000000000000000 4560
Mon Jul 28 00:00:00 GMT 2008 anonymous --Other-- Other Full Flower 32.710000000000000 -117.000000000000000 4562
Mon Jul 28 00:00:00 GMT 2008 anonymous --Other-- Other Full Flower 32.710000000000000 -117.000000000000000 4563
Thu Jun 26 00:00:00 GMT 2008 anonymous --Other-- Other First Leaf 32.664500000000000 -117.095000000000000 4574
Sat Jul 12 00:00:00 GMT 2008 anonymous --Other-- Other First Flower 32.664500000000000 -117.095000000000000 4576
Thu Mar 20 00:00:00 GMT 2008 anonymous --Other-- Other First Leaf 32.664500000000000 -117.095000000000000 4577
Fri Mar 28 00:00:00 GMT 2008 anonymous --Other-- Other All Leaves Unfolded 32.664500000000000 -117.095000000000000 4578
Mon Mar 31 00:00:00 GMT 2008 anonymous --Other-- Other First Flower 32.664500000000000 -117.095000000000000 4579
Sat Apr 12 00:00:00 GMT 2008 anonymous --Other-- Other Full Flower 32.664500000000000 -117.095000000000000 4580
Wed Jul 30 00:00:00 GMT 2008 anonymous --Other-- Other End of Flowering 32.664500000000000 -117.095000000000000 4581
Thu May 15 00:00:00 GMT 2008 anonymous --Other-- Other First Flower 34.228300000000000 -118.468000000000000 4605
Sun Jun 01 00:00:00 GMT 2008 anonymous --Other-- Other Full Flower 34.228300000000000 -118.468000000000000 4606
Sat May 17 00:00:00 GMT 2008 anonymous --Other-- Other First Leaf 45.190200000000000 -117.134000000000000 4761
Sat Nov 01 00:00:00 GMT 2008 anonymous --Other-- Other First Leaf 32.877700000000000 -79.984700000000000 4762
Sat Nov 01 00:00:00 GMT 2008 anonymous --Other-- Other All Leaves Unfolded 32.877700000000000 -79.984700000000000 4763
Sat Nov 15 00:00:00 GMT 2008 anonymous --Other-- Other First Flower 32.877700000000000 -79.984700000000000 4764
Sat Nov 15 00:00:00 GMT 2008 anonymous --Other-- Other Full Flower 32.877700000000000 -79.984700000000000 4765
Tue Apr 08 00:00:00 GMT 2008 anonymous --Other-- Other First Leaf 40.706000000000000 -79.701800000000000 4820
Fri Apr 11 00:00:00 GMT 2008 anonymous --Other-- Other All Leaves Unfolded 40.706000000000000 -79.701800000000000 4821
Sat Apr 19 00:00:00 GMT 2008 anonymous --Other-- Other First Flower 40.706000000000000 -79.701800000000000 4822
Mon Apr 21 00:00:00 GMT 2008 anonymous --Other-- Other Full Flower 40.706000000000000 -79.701800000000000 4823
Tue May 13 00:00:00 GMT 2008 anonymous --Other-- Other End of Flowering 40.706000000000000 -79.701800000000000 4824
Thu Apr 10 00:00:00 GMT 2008 anonymous --Other-- Other First Leaf 40.708000000000000 -79.712300000000000 4825
Wed Apr 16 00:00:00 GMT 2008 anonymous --Other-- Other All Leaves Unfolded 40.708000000000000 -79.712300000000000 4826
Mon Apr 14 00:00:00 GMT 2008 anonymous --Other-- Other First Flower 40.708000000000000 -79.712300000000000 4827
Wed Apr 16 00:00:00 GMT 2008 anonymous --Other-- Other Full Flower 40.708000000000000 -79.712300000000000 4828
Sun Apr 20 00:00:00 GMT 2008 anonymous --Other-- Other End of Flowering 40.708000000000000 -79.712300000000000 4829
Fri Dec 26 00:00:00 GMT 2008 anonymous --Other-- Other All Leaves Unfolded 32.022300000000000 -80.857300000000000 4852
Sun Feb 15 00:00:00 GMT 2009 anonymous --Other-- Other Full Flower 34.293000000000000 -94.180900000000000 4915
Sun Feb 22 00:00:00 GMT 2009 anonymous --Other-- Other First Flower 34.293000000000000 -94.180900000000000 4919
Sun Feb 22 00:00:00 GMT 2009 anonymous --Other-- Other First Leaf 34.293000000000000 -94.180900000000000 4917
Sun Mar 01 00:00:00 GMT 2009 anonymous --Other-- Other First Leaf 34.321300000000000 -94.227300000000000 4926
Fri Feb 27 00:00:00 GMT 2009 anonymous --Other-- Other Full Flower 34.295800000000000 -94.176700000000000 4928
Fri Feb 27 00:00:00 GMT 2009 anonymous --Other-- Other First Flower 34.293300000000000 -94.183500000000000 4927
Sun Mar 01 00:00:00 GMT 2009 anonymous --Other-- Other All Leaves Unfolded 34.321400000000000 -94.226700000000000 4925
Sun Mar 01 00:00:00 GMT 2009 anonymous --Other-- Other First Leaf 34.294800000000000 -94.172900000000000 4929
Sun Mar 01 00:00:00 GMT 2009 anonymous --Other-- Other First Flower 34.294200000000000 -94.177900000000000 4930
Sun Mar 01 00:00:00 GMT 2009 anonymous --Other-- Other First Flower 40.056700000000000 -105.191000000000000 4933
Thu Feb 26 00:00:00 GMT 2009 anonymous --Other-- Other First Leaf 39.783700000000000 -82.786900000000000 4939
Mon Mar 02 00:00:00 GMT 2009 anonymous --Other-- Other All Leaves Unfolded 39.783700000000000 -82.786900000000000 4940
Fri Mar 06 00:00:00 GMT 2009 anonymous --Other-- Other First Flower 39.783700000000000 -82.786900000000000 4941
Fri Mar 06 00:00:00 GMT 2009 anonymous --Other-- Other Full Flower 39.783700000000000 -82.786900000000000 4942
Wed Feb 25 00:00:00 GMT 2009 anonymous --Other-- Other First Leaf 39.783700000000000 -82.786900000000000 4935
Mon Mar 02 00:00:00 GMT 2009 anonymous --Other-- Other All Leaves Unfolded 39.783700000000000 -82.786900000000000 4936
Fri Mar 06 00:00:00 GMT 2009 anonymous --Other-- Other First Flower 39.783700000000000 -82.786900000000000 4937
Fri Mar 06 00:00:00 GMT 2009 anonymous --Other-- Other Full Flower 39.783700000000000 -82.786900000000000 4938
Sun Mar 01 00:00:00 GMT 2009 anonymous --Other-- Other First Leaf 40.547500000000000 -111.837000000000000 4949
Thu Mar 05 00:00:00 GMT 2009 anonymous --Other-- Other All Leaves Unfolded 40.547500000000000 -111.837000000000000 4950
Fri Mar 06 00:00:00 GMT 2009 anonymous --Other-- Other First Flower 40.547500000000000 -111.837000000000000 4951
Fri Mar 06 00:00:00 GMT 2009 anonymous --Other-- Other Full Flower 35.856400000000000 -84.222900000000000 4952
Sun Mar 08 00:00:00 GMT 2009 anonymous --Other-- Other First Leaf 39.933800000000000 -105.057000000000000 4954
Mon Mar 09 00:00:00 GMT 2009 anonymous --Other-- Other First Flower 35.549000000000000 -82.341000000000000 4958
Tue Mar 03 00:00:00 GMT 2009 anonymous --Other-- Other First Leaf 35.549000000000000 -82.341000000000000 4959
Tue Mar 10 00:00:00 GMT 2009 anonymous --Other-- Other First Leaf 40.875900000000000 -74.954700000000000 4960
Tue Mar 10 00:00:00 GMT 2009 anonymous --Other-- Other First Leaf 35.562800000000000 -82.934500000000000 4961
Wed Mar 04 00:00:00 GMT 2009 erichaskell --Other-- Other All Leaves Unfolded 31.622500000000000 -97.240700000000000 5010
Wed Mar 04 00:00:00 GMT 2009 erichaskell --Other-- Other First Flower 31.622500000000000 -97.240700000000000 5011
Fri Mar 06 00:00:00 GMT 2009 erichaskell --Other-- Other Full Flower 31.622500000000000 -97.240700000000000 5012
Wed Mar 11 00:00:00 GMT 2009 erichaskell --Other-- Other End of Flowering 31.622500000000000 -97.240700000000000 5013
Fri Mar 06 00:00:00 GMT 2009 anonymous --Other-- Other First Leaf 41.974500000000000 -87.804600000000000 5052
Fri Mar 06 00:00:00 GMT 2009 anonymous --Other-- Other First Leaf 41.974600000000000 -87.804600000000000 5062
Wed Mar 04 00:00:00 GMT 2009 judithawhiteley@yahoo.com --Other-- Other First Flower 47.492900000000000 -122.248000000000000 5099
Fri Mar 06 00:00:00 GMT 2009 judithawhiteley@yahoo.com --Other-- Other Full Flower 47.492900000000000 -122.248000000000000 5100
Sat Mar 14 00:00:00 GMT 2009 anonymous --Other-- Other First Flower 47.491600000000000 -122.247000000000000 5098
Wed Mar 11 00:00:00 GMT 2009 anonymous --Other-- Other First Flower 42.000000000000000 -72.000000000000000 5141
Wed Mar 18 00:00:00 GMT 2009 anonymous --Other-- Other Full Flower 42.000000000000000 -72.000000000000000 5142
Fri Mar 20 00:00:00 GMT 2009 anonymous --Other-- Other First Leaf 41.422700000000000 -74.084600000000000 5167
Sun Mar 15 00:00:00 GMT 2009 renebussing --Other-- Other First Leaf 43.062700000000000 -85.252500000000000 5147
Wed Mar 18 00:00:00 GMT 2009 renebussing --Other-- Other First Flower 43.062700000000000 -85.252500000000000 5148
Wed Mar 18 00:00:00 GMT 2009 fritzbr1 --Other-- Other First Flower 42.620100000000000 -83.938500000000000 5188
Wed Mar 18 00:00:00 GMT 2009 fritzbr1 --Other-- Other First Flower 42.620100000000000 -83.938500000000000 5189
Mon Mar 23 00:00:00 GMT 2009 plantprotecter42 --Other-- Other First Leaf 42.152600000000000 -83.703000000000000 5216
Sun Mar 08 00:00:00 GMT 2009 dennisw --Other-- Other First Leaf 40.036200000000000 -105.062000000000000 5214
Sat Mar 28 00:00:00 GMT 2009 fmims --Other-- Other First Leaf 29.605500000000000 -97.933000000000000 5321
Mon Mar 30 00:00:00 GMT 2009 anonymous --Other-- Other First Leaf 42.220100000000000 -78.277100000000000 5340
Mon Mar 30 00:00:00 GMT 2009 anonymous --Other-- Other First Flower 42.220100000000000 -78.277100000000000 5341
Mon Mar 30 00:00:00 GMT 2009 anonymous --Other-- Other 50% Color 42.220100000000000 -78.277100000000000 5342
Thu Mar 19 00:00:00 GMT 2009 ZooMontana --Other-- Other First Flower 45.782700000000000 -108.504000000000000 5346
Tue Mar 03 00:00:00 GMT 2009 chilibob --Other-- Other First Leaf 47.580400000000000 -122.030000000000000 5382
Mon Apr 14 00:00:00 GMT 2008 anonymous --Other-- Other End of Flowering 40.528900000000000 -74.309500000000000 5383
Sat Nov 15 00:00:00 GMT 2008 anonymous --Other-- Other 50% Leaf Fall 40.528900000000000 -74.309500000000000 5384
Wed Apr 01 00:00:00 GMT 2009 Birdie --Other-- Other First Flower 40.829900000000000 -74.150200000000000 5388
Fri Apr 03 00:00:00 GMT 2009 Birdie --Other-- Other Full Flower 40.829900000000000 -74.150200000000000 5389
Sat Apr 04 00:00:00 GMT 2009 anonymous --Other-- Other First Flower 40.528900000000000 -74.309500000000000 5403
Wed Apr 01 00:00:00 GMT 2009 vitaminjunkie --Other-- Other First Flower 40.650800000000000 -74.623700000000000 5450
Sat Apr 04 00:00:00 GMT 2009 vitaminjunkie --Other-- Other Full Flower 40.650800000000000 -74.623700000000000 5451
Sun Mar 29 00:00:00 GMT 2009 anonymous --Other-- Other First Leaf 43.823300000000000 -91.190100000000000 5452
Sat Apr 04 00:00:00 GMT 2009 anonymous --Other-- Other First Flower 33.645800000000000 -112.026000000000000 5475
Wed Apr 01 00:00:00 GMT 2009 anonymous --Other-- Other First Flower 33.645800000000000 -112.024000000000000 5476
Mon Apr 06 00:00:00 GMT 2009 anonymous --Other-- Other Full Flower 33.645800000000000 -112.024000000000000 5477
Tue Mar 31 00:00:00 GMT 2009 Tasha.Berg --Other-- Other First Flower 37.541100000000000 -77.536400000000000 5512
Thu Apr 02 00:00:00 GMT 2009 anonymous --Other-- Other First Leaf 40.672400000000000 -74.428100000000000 5533
Sat Apr 04 00:00:00 GMT 2009 anonymous --Other-- Other All Leaves Unfolded 40.672400000000000 -74.428100000000000 5534
Wed Apr 08 00:00:00 GMT 2009 anonymous --Other-- Other First Flower 40.672400000000000 -74.428100000000000 5535
Thu Apr 02 00:00:00 GMT 2009 anonymous --Other-- Other First Leaf 40.672400000000000 -74.428100000000000 5536
Sat Apr 04 00:00:00 GMT 2009 anonymous --Other-- Other All Leaves Unfolded 40.672400000000000 -74.428100000000000 5537
Wed Apr 08 00:00:00 GMT 2009 anonymous --Other-- Other First Flower 40.672400000000000 -74.428100000000000 5538
Fri Apr 10 00:00:00 GMT 2009 anonymous --Other-- Other First Leaf 33.337200000000000 -86.889100000000000 5569
Sun Mar 29 00:00:00 GMT 2009 anonymous --Other-- Other First Flower 39.160000000000000 -86.490000000000000 5651
Sun Apr 05 00:00:00 GMT 2009 anonymous --Other-- Other First Flower 39.160000000000000 -86.490000000000000 5640
Sun Apr 05 00:00:00 GMT 2009 anonymous --Other-- Other All Leaves Unfolded 39.160000000000000 -86.490000000000000 5648
Sun Mar 22 00:00:00 GMT 2009 anonymous --Other-- Other First Flower 39.160000000000000 -86.490000000000000 5649
Sun Apr 05 00:00:00 GMT 2009 anonymous --Other-- Other All Leaves Unfolded 39.160000000000000 -86.490000000000000 5642
Sun Mar 22 00:00:00 GMT 2009 anonymous --Other-- Other First Flower 39.160000000000000 -86.490000000000000 5643
Sun Feb 15 00:00:00 GMT 2009 anonymous --Other-- Other All Leaves Unfolded 39.160000000000000 -86.490000000000000 5645
Sun Apr 05 00:00:00 GMT 2009 anonymous --Other-- Other First Flower 39.160000000000000 -86.490000000000000 5646
Sun Apr 05 00:00:00 GMT 2009 anonymous --Other-- Other First Flower 39.160000000000000 -86.490000000000000 5650
Sun Mar 29 00:00:00 GMT 2009 anonymous --Other-- Other First Flower 39.160000000000000 -86.490000000000000 5644
Fri Feb 06 00:00:00 GMT 2009 anonymous --Other-- Other First Leaf 35.856400000000000 -84.222900000000000 5654
Wed Feb 11 00:00:00 GMT 2009 anonymous --Other-- Other All Leaves Unfolded 35.856400000000000 -84.222900000000000 5655
Sun Feb 22 00:00:00 GMT 2009 anonymous --Other-- Other First Flower 35.856400000000000 -84.222900000000000 5656
Fri Mar 06 00:00:00 GMT 2009 anonymous --Other-- Other Full Flower 35.856400000000000 -84.222900000000000 5657
Tue Apr 07 00:00:00 GMT 2009 anonymous --Other-- Other End of Flowering 35.856400000000000 -84.222900000000000 5658
Fri Feb 06 00:00:00 GMT 2009 anonymous --Other-- Other First Leaf 35.856400000000000 -84.222900000000000 5659
Wed Feb 11 00:00:00 GMT 2009 anonymous --Other-- Other All Leaves Unfolded 35.856400000000000 -84.222900000000000 5660
Sun Feb 22 00:00:00 GMT 2009 anonymous --Other-- Other First Flower 35.856400000000000 -84.222900000000000 5661
Fri Mar 06 00:00:00 GMT 2009 anonymous --Other-- Other Full Flower 35.856400000000000 -84.222900000000000 5662
Tue Apr 07 00:00:00 GMT 2009 anonymous --Other-- Other End of Flowering 35.856400000000000 -84.222900000000000 5663
Fri Feb 06 00:00:00 GMT 2009 anonymous --Other-- Other First Leaf 35.856400000000000 -84.222900000000000 5664
Wed Feb 11 00:00:00 GMT 2009 anonymous --Other-- Other All Leaves Unfolded 35.856400000000000 -84.222900000000000 5665
Sun Feb 22 00:00:00 GMT 2009 anonymous --Other-- Other First Flower 35.856400000000000 -84.222900000000000 5666
Fri Mar 06 00:00:00 GMT 2009 anonymous --Other-- Other Full Flower 35.856400000000000 -84.222900000000000 5667
Tue Apr 07 00:00:00 GMT 2009 anonymous --Other-- Other End of Flowering 35.856400000000000 -84.222900000000000 5668
Mon Feb 23 00:00:00 GMT 2009 anonymous --Other-- Other First Leaf 39.164300000000000 -86.526900000000000 5711
Mon Mar 23 00:00:00 GMT 2009 anonymous --Other-- Other All Leaves Unfolded 39.164300000000000 -86.526900000000000 5712
Mon Mar 09 00:00:00 GMT 2009 anonymous --Other-- Other First Leaf 39.164300000000000 -86.526900000000000 5706
Mon Mar 16 00:00:00 GMT 2009 anonymous --Other-- Other All Leaves Unfolded 39.164300000000000 -86.526900000000000 5707
Mon Feb 23 00:00:00 GMT 2009 anonymous --Other-- Other First Ripe Fruit 39.164300000000000 -86.526900000000000 5708
Mon Feb 09 00:00:00 GMT 2009 anonymous --Other-- Other First Leaf 39.164300000000000 -86.526900000000000 5710
Mon Feb 09 00:00:00 GMT 2009 anonymous --Other-- Other First Leaf 39.164300000000000 -86.526900000000000 5705
Mon Feb 23 00:00:00 GMT 2009 anonymous --Other-- Other First Leaf 39.164300000000000 -86.526900000000000 5709
Thu Mar 26 00:00:00 GMT 2009 anonymous --Other-- Other First Leaf 39.164300000000000 -86.526900000000000 5717
Mon Feb 16 00:00:00 GMT 2009 anonymous --Other-- Other First Leaf 39.160000000000000 -86.490000000000000 5735
Mon Mar 23 00:00:00 GMT 2009 anonymous --Other-- Other First Flower 39.160000000000000 -86.490000000000000 5736
Mon Feb 16 00:00:00 GMT 2009 anonymous --Other-- Other First Leaf 39.160000000000000 -86.490000000000000 5729
Mon Mar 23 00:00:00 GMT 2009 anonymous --Other-- Other First Leaf 39.177800000000000 -86.532200000000000 5744
Mon Mar 23 00:00:00 GMT 2009 anonymous --Other-- Other All Leaves Unfolded 39.177800000000000 -86.532200000000000 5745
Mon Mar 23 00:00:00 GMT 2009 anonymous --Other-- Other First Flower 39.177800000000000 -86.532200000000000 5746
Tue Feb 24 00:00:00 GMT 2009 anonymous --Other-- Other First Leaf 39.177800000000000 -86.532200000000000 5739
Tue Apr 07 00:00:00 GMT 2009 anonymous --Other-- Other All Leaves Unfolded 39.177800000000000 -86.532200000000000 5740
Mon Mar 23 00:00:00 GMT 2009 anonymous --Other-- Other All Leaves Unfolded 39.177800000000000 -86.532200000000000 5741
Tue Feb 24 00:00:00 GMT 2009 anonymous --Other-- Other First Leaf 39.177800000000000 -86.532200000000000 5737
Tue Apr 07 00:00:00 GMT 2009 anonymous --Other-- Other All Leaves Unfolded 39.177800000000000 -86.532200000000000 5738
Sun Feb 08 00:00:00 GMT 2009 anonymous --Other-- Other First Leaf 39.177800000000000 -86.532200000000000 5742
Tue Apr 07 00:00:00 GMT 2009 anonymous --Other-- Other 50% Leaf Fall 39.177800000000000 -86.532200000000000 5743
Mon Apr 13 00:00:00 GMT 2009 chilibob --Other-- Other All Leaves Unfolded 47.580400000000000 -122.030000000000000 5757
Tue Apr 14 00:00:00 GMT 2009 chilibob --Other-- Other First Flower 47.580400000000000 -122.030000000000000 5758
Fri Apr 17 00:00:00 GMT 2009 anonymous --Other-- Other First Flower 41.568100000000000 -73.566400000000000 5792
Fri Apr 10 00:00:00 GMT 2009 anonymous --Other-- Other First Leaf 39.184900000000000 -120.978000000000000 5804
Fri Apr 17 00:00:00 GMT 2009 anonymous --Other-- Other All Leaves Unfolded 39.184900000000000 -120.978000000000000 5805
Mon Apr 06 00:00:00 GMT 2009 srulison --Other-- Other First Leaf 37.540000000000000 -75.920000000000000 5820
Thu Apr 16 00:00:00 GMT 2009 srulison --Other-- Other All Leaves Unfolded 37.540000000000000 -75.920000000000000 5821
Tue Mar 10 00:00:00 GMT 2009 anonymous --Other-- Other First Flower 39.164300000000000 -86.526900000000000 5882
Thu Mar 26 00:00:00 GMT 2009 anonymous --Other-- Other Full Flower 39.164300000000000 -86.526900000000000 5883
Tue Apr 07 00:00:00 GMT 2009 anonymous --Other-- Other End of Flowering 39.164300000000000 -86.526900000000000 5884
Tue Mar 10 00:00:00 GMT 2009 anonymous --Other-- Other First Flower 39.164300000000000 -86.526900000000000 5876
Thu Mar 26 00:00:00 GMT 2009 anonymous --Other-- Other Full Flower 39.164300000000000 -86.526900000000000 5877
Tue Apr 07 00:00:00 GMT 2009 anonymous --Other-- Other End of Flowering 39.164300000000000 -86.526900000000000 5878
Thu Mar 26 00:00:00 GMT 2009 anonymous --Other-- Other First Leaf 39.164300000000000 -86.526900000000000 5874
Tue Apr 07 00:00:00 GMT 2009 anonymous --Other-- Other All Leaves Unfolded 39.164300000000000 -86.526900000000000 5875
Tue Mar 10 00:00:00 GMT 2009 anonymous --Other-- Other First Ripe Fruit 39.164300000000000 -86.526900000000000 5873
Wed Mar 18 00:00:00 GMT 2009 anonymous --Other-- Other First Leaf 39.084500000000000 -86.370000000000000 5925
Wed Apr 01 00:00:00 GMT 2009 anonymous --Other-- Other All Leaves Unfolded 39.084500000000000 -86.370000000000000 5926
Wed Apr 01 00:00:00 GMT 2009 laurhill --Other-- Other All Leaves Unfolded 39.084500000000000 -86.370000000000000 5907
Wed Mar 04 00:00:00 GMT 2009 laurhill --Other-- Other First Leaf 39.084500000000000 -86.370000000000000 5894
Wed Mar 11 00:00:00 GMT 2009 laurhill --Other-- Other All Leaves Unfolded 39.084500000000000 -86.370000000000000 5895
Wed Mar 18 00:00:00 GMT 2009 laurhill --Other-- Other First Flower 39.084500000000000 -86.370000000000000 5896
Sat Apr 04 00:00:00 GMT 2009 anonymous --Other-- Other First Leaf 39.160000000000000 -86.490000000000000 5927
Wed Mar 04 00:00:00 GMT 2009 laurhill --Other-- Other First Leaf 39.084500000000000 -86.370000000000000 5901
Wed Mar 11 00:00:00 GMT 2009 laurhill --Other-- Other All Leaves Unfolded 39.084500000000000 -86.370000000000000 5902
Wed Mar 18 00:00:00 GMT 2009 laurhill --Other-- Other First Flower 39.084500000000000 -86.370000000000000 5903
Wed Apr 01 00:00:00 GMT 2009 anonymous --Other-- Other First Leaf 39.084500000000000 -86.370000000000000 5912
Wed Apr 15 00:00:00 GMT 2009 anonymous --Other-- Other All Leaves Unfolded 39.084500000000000 -86.370000000000000 5913
Wed Mar 25 00:00:00 GMT 2009 anonymous --Other-- Other First Leaf 39.084500000000000 -86.370000000000000 5916
Wed Mar 25 00:00:00 GMT 2009 anonymous --Other-- Other First Leaf 39.084500000000000 -86.370000000000000 5921
Wed Apr 01 00:00:00 GMT 2009 anonymous --Other-- Other All Leaves Unfolded 39.084500000000000 -86.370000000000000 5922
Wed Apr 08 00:00:00 GMT 2009 anonymous --Other-- Other First Flower 39.084500000000000 -86.370000000000000 5923
Wed Mar 04 00:00:00 GMT 2009 anonymous --Other-- Other First Leaf 39.084500000000000 -86.370000000000000 5889
Wed Mar 11 00:00:00 GMT 2009 anonymous --Other-- Other All Leaves Unfolded 39.084500000000000 -86.370000000000000 5890
Wed Mar 18 00:00:00 GMT 2009 anonymous --Other-- Other First Flower 39.084500000000000 -86.370000000000000 5891
Wed Mar 04 00:00:00 GMT 2009 anonymous --Other-- Other First Leaf 39.084500000000000 -86.370000000000000 5908
Wed Mar 11 00:00:00 GMT 2009 anonymous --Other-- Other All Leaves Unfolded 39.084500000000000 -86.370000000000000 5909
Wed Mar 18 00:00:00 GMT 2009 anonymous --Other-- Other First Flower 39.084500000000000 -86.370000000000000 5910
Fri Mar 27 00:00:00 GMT 2009 anonymous --Other-- Other First Flower 39.160000000000000 -86.490000000000000 5939
Sun Apr 19 00:00:00 GMT 2009 anonymous --Other-- Other First Flower 38.990000000000000 -77.080000000000000 5941
Fri Feb 27 00:00:00 GMT 2009 anonymous --Other-- Other First Leaf 39.160000000000000 -86.490000000000000 5932
Fri Mar 06 00:00:00 GMT 2009 anonymous --Other-- Other First Flower 39.160000000000000 -86.490000000000000 5933
Mon Mar 23 00:00:00 GMT 2009 anonymous --Other-- Other First Leaf 39.160000000000000 -86.490000000000000 5959
Mon Mar 30 00:00:00 GMT 2009 anonymous --Other-- Other All Leaves Unfolded 39.160000000000000 -86.490000000000000 5960
Mon Mar 30 00:00:00 GMT 2009 anonymous --Other-- Other First Flower 39.160000000000000 -86.490000000000000 5961
Mon Mar 09 00:00:00 GMT 2009 anonymous --Other-- Other First Leaf 39.160000000000000 -86.490000000000000 5951
Mon Mar 23 00:00:00 GMT 2009 anonymous --Other-- Other All Leaves Unfolded 39.160000000000000 -86.490000000000000 5952
Mon Mar 23 00:00:00 GMT 2009 anonymous --Other-- Other First Flower 39.160000000000000 -86.490000000000000 5953
Mon Mar 30 00:00:00 GMT 2009 anonymous --Other-- Other Full Flower 39.160000000000000 -86.490000000000000 5954
Mon Apr 06 00:00:00 GMT 2009 anonymous --Other-- Other First Leaf 39.160000000000000 -86.490000000000000 5950
Mon Mar 09 00:00:00 GMT 2009 anonymous --Other-- Other First Leaf 39.160000000000000 -86.490000000000000 5946
Mon Mar 23 00:00:00 GMT 2009 anonymous --Other-- Other All Leaves Unfolded 39.160000000000000 -86.490000000000000 5947
Mon Mar 23 00:00:00 GMT 2009 anonymous --Other-- Other First Flower 39.160000000000000 -86.490000000000000 5948
Mon Mar 30 00:00:00 GMT 2009 anonymous --Other-- Other End of Flowering 39.160000000000000 -86.490000000000000 5949
Mon Mar 09 00:00:00 GMT 2009 anonymous --Other-- Other First Leaf 39.160000000000000 -86.490000000000000 5955
Mon Mar 23 00:00:00 GMT 2009 anonymous --Other-- Other All Leaves Unfolded 39.160000000000000 -86.490000000000000 5956
Mon Mar 23 00:00:00 GMT 2009 anonymous --Other-- Other First Flower 39.160000000000000 -86.490000000000000 5957
Mon Mar 30 00:00:00 GMT 2009 anonymous --Other-- Other Full Flower 39.160000000000000 -86.490000000000000 5958
Sun Feb 08 00:00:00 GMT 2009 anonymous --Other-- Other First Leaf 39.160000000000000 -86.490000000000000 5966
Sun Feb 08 00:00:00 GMT 2009 anonymous --Other-- Other All Leaves Unfolded 39.160000000000000 -86.490000000000000 5967
Sun Mar 15 00:00:00 GMT 2009 anonymous --Other-- Other First Leaf 39.160000000000000 -86.490000000000000 5968
Wed Apr 08 00:00:00 GMT 2009 anonymous --Other-- Other First Ripe Fruit 39.160000000000000 -86.490000000000000 5969
Mon Mar 30 00:00:00 GMT 2009 anonymous --Other-- Other First Leaf 39.160000000000000 -86.490000000000000 5962
Mon Mar 30 00:00:00 GMT 2009 anonymous --Other-- Other First Leaf 39.160000000000000 -86.490000000000000 5964
Mon Mar 30 00:00:00 GMT 2009 anonymous --Other-- Other First Leaf 39.160000000000000 -86.490000000000000 5963
Sun Mar 08 00:00:00 GMT 2009 anonymous --Other-- Other First Leaf 39.000000000000000 -86.000000000000000 5980
Thu Mar 12 00:00:00 GMT 2009 anonymous --Other-- Other All Leaves Unfolded 39.000000000000000 -86.000000000000000 5981
Sun Mar 22 00:00:00 GMT 2009 anonymous --Other-- Other First Flower 39.000000000000000 -86.000000000000000 5982
Wed Apr 01 00:00:00 GMT 2009 anonymous --Other-- Other Full Flower 39.000000000000000 -86.000000000000000 5983
Sun Mar 08 00:00:00 GMT 2009 anonymous --Other-- Other First Leaf 39.000000000000000 -86.000000000000000 5984
Thu Mar 12 00:00:00 GMT 2009 anonymous --Other-- Other All Leaves Unfolded 39.000000000000000 -86.000000000000000 5985
Sun Mar 22 00:00:00 GMT 2009 anonymous --Other-- Other First Flower 39.000000000000000 -86.000000000000000 5986
Wed Apr 01 00:00:00 GMT 2009 anonymous --Other-- Other Full Flower 39.000000000000000 -86.000000000000000 5987
Tue Mar 03 00:00:00 GMT 2009 anonymous --Other-- Other First Leaf 39.160000000000000 -86.490000000000000 5971
Sun Mar 22 00:00:00 GMT 2009 anonymous --Other-- Other All Leaves Unfolded 39.160000000000000 -86.490000000000000 5972
Sun Apr 05 00:00:00 GMT 2009 anonymous --Other-- Other First Ripe Fruit 39.160000000000000 -86.490000000000000 5973
Sun Feb 08 00:00:00 GMT 2009 anonymous --Other-- Other First Leaf 39.160000000000000 -86.490000000000000 5976
Sun Feb 22 00:00:00 GMT 2009 anonymous --Other-- Other First Leaf 39.160000000000000 -86.490000000000000 5974
Sun Mar 08 00:00:00 GMT 2009 anonymous --Other-- Other First Ripe Fruit 39.160000000000000 -86.490000000000000 5975
Fri Mar 20 00:00:00 GMT 2009 anonymous --Other-- Other First Leaf 39.000000000000000 -86.000000000000000 5999
Thu Apr 02 00:00:00 GMT 2009 anonymous --Other-- Other All Leaves Unfolded 39.000000000000000 -86.000000000000000 6000
Thu Apr 02 00:00:00 GMT 2009 anonymous --Other-- Other First Flower 39.000000000000000 -86.000000000000000 6001
Sun Apr 12 00:00:00 GMT 2009 anonymous --Other-- Other Full Flower 39.000000000000000 -86.000000000000000 6002
Sun Feb 08 00:00:00 GMT 2009 anonymous --Other-- Other First Leaf 39.000000000000000 -86.000000000000000 5995
Sun Feb 08 00:00:00 GMT 2009 anonymous --Other-- Other All Leaves Unfolded 39.000000000000000 -86.000000000000000 5996
Sun Feb 08 00:00:00 GMT 2009 anonymous --Other-- Other First Flower 39.000000000000000 -86.000000000000000 5997
Sun Feb 08 00:00:00 GMT 2009 anonymous --Other-- Other Full Flower 39.000000000000000 -86.000000000000000 5998
Fri Mar 27 00:00:00 GMT 2009 anonymous --Other-- Other First Flower 39.160000000000000 -86.490000000000000 5988
Fri Apr 03 00:00:00 GMT 2009 anonymous --Other-- Other Full Flower 39.160000000000000 -86.490000000000000 5989
Sun Mar 08 00:00:00 GMT 2009 anonymous --Other-- Other First Leaf 39.000000000000000 -86.000000000000000 5990
Thu Mar 12 00:00:00 GMT 2009 anonymous --Other-- Other All Leaves Unfolded 39.000000000000000 -86.000000000000000 5991
Sun Mar 22 00:00:00 GMT 2009 anonymous --Other-- Other First Flower 39.000000000000000 -86.000000000000000 5992
Wed Apr 01 00:00:00 GMT 2009 anonymous --Other-- Other Full Flower 39.000000000000000 -86.000000000000000 5993
Thu Apr 02 00:00:00 GMT 2009 anonymous --Other-- Other First Leaf 39.000000000000000 -86.000000000000000 6003
Fri Apr 17 00:00:00 GMT 2009 anonymous --Other-- Other All Leaves Unfolded 39.000000000000000 -86.000000000000000 6004
Thu Mar 12 00:00:00 GMT 2009 anonymous --Other-- Other First Leaf 39.000000000000000 -86.000000000000000 6005
Thu Apr 02 00:00:00 GMT 2009 anonymous --Other-- Other All Leaves Unfolded 39.000000000000000 -86.000000000000000 6006
Mon Mar 23 00:00:00 GMT 2009 anonymous --Other-- Other First Leaf 38.290000000000000 -85.830000000000000 6022
Mon Feb 23 00:00:00 GMT 2009 anonymous --Other-- Other First Leaf 38.290000000000000 -85.830000000000000 6023
Mon Feb 23 00:00:00 GMT 2009 anonymous --Other-- Other All Leaves Unfolded 38.290000000000000 -85.830000000000000 6024
Mon Mar 09 00:00:00 GMT 2009 anonymous --Other-- Other First Leaf 38.290000000000000 -85.830000000000000 6019
Mon Mar 16 00:00:00 GMT 2009 anonymous --Other-- Other All Leaves Unfolded 38.290000000000000 -85.830000000000000 6020
Mon Feb 23 00:00:00 GMT 2009 anonymous --Other-- Other First Leaf 38.290000000000000 -85.830000000000000 6016
Mon Feb 23 00:00:00 GMT 2009 anonymous --Other-- Other All Leaves Unfolded 38.290000000000000 -85.830000000000000 6017
Mon Mar 30 00:00:00 GMT 2009 anonymous --Other-- Other First Flower 38.290000000000000 -85.830000000000000 6018
Thu Jan 01 00:00:00 GMT 2009 anonymous --Other-- Other 50% Leaf Fall 38.290000000000000 -85.830000000000000 6021
Fri Feb 27 00:00:00 GMT 2009 anonymous --Other-- Other First Leaf 39.140000000000000 -86.620000000000000 6033
Fri Mar 20 00:00:00 GMT 2009 anonymous --Other-- Other All Leaves Unfolded 39.140000000000000 -86.620000000000000 6034
Sun Feb 22 00:00:00 GMT 2009 anonymous --Other-- Other First Leaf 39.160000000000000 -86.490000000000000 6040
Sun Mar 01 00:00:00 GMT 2009 anonymous --Other-- Other All Leaves Unfolded 39.160000000000000 -86.490000000000000 6041
Sun Mar 01 00:00:00 GMT 2009 anonymous --Other-- Other First Flower 39.160000000000000 -86.490000000000000 6042
Sun Mar 08 00:00:00 GMT 2009 anonymous --Other-- Other Full Flower 39.160000000000000 -86.490000000000000 6043
Sun Feb 15 00:00:00 GMT 2009 anonymous --Other-- Other First Leaf 39.160000000000000 -86.490000000000000 6037
Sun Feb 15 00:00:00 GMT 2009 anonymous --Other-- Other All Leaves Unfolded 39.160000000000000 -86.490000000000000 6038
Sun Mar 08 00:00:00 GMT 2009 anonymous --Other-- Other First Flower 39.160000000000000 -86.490000000000000 6039
Sun Mar 01 00:00:00 GMT 2009 anonymous --Other-- Other First Leaf 39.160000000000000 -86.490000000000000 6045
Sun Mar 01 00:00:00 GMT 2009 anonymous --Other-- Other All Leaves Unfolded 39.160000000000000 -86.490000000000000 6046
Sun Feb 22 00:00:00 GMT 2009 anonymous --Other-- Other First Leaf 39.160000000000000 -86.490000000000000 6028
Sun Mar 01 00:00:00 GMT 2009 anonymous --Other-- Other All Leaves Unfolded 39.160000000000000 -86.490000000000000 6029
Sun Mar 01 00:00:00 GMT 2009 anonymous --Other-- Other First Flower 39.160000000000000 -86.490000000000000 6030
Sun Mar 15 00:00:00 GMT 2009 anonymous --Other-- Other Full Flower 39.160000000000000 -86.490000000000000 6031
Sun Mar 08 00:00:00 GMT 2009 anonymous --Other-- Other First Leaf 39.160000000000000 -86.490000000000000 6035
Sun Mar 15 00:00:00 GMT 2009 anonymous --Other-- Other All Leaves Unfolded 39.160000000000000 -86.490000000000000 6036
Mon Mar 23 00:00:00 GMT 2009 anonymous --Other-- Other First Leaf 39.140000000000000 -86.620000000000000 5843
Mon Mar 30 00:00:00 GMT 2009 anonymous --Other-- Other All Leaves Unfolded 39.140000000000000 -86.620000000000000 5844
Mon Mar 30 00:00:00 GMT 2009 anonymous --Other-- Other First Flower 39.140000000000000 -86.620000000000000 5845
Mon Apr 06 00:00:00 GMT 2009 anonymous --Other-- Other Full Flower 39.140000000000000 -86.620000000000000 5846
Fri Apr 10 00:00:00 GMT 2009 anonymous --Other-- Other End of Flowering 39.160000000000000 -86.490000000000000 6060
Thu Feb 19 00:00:00 GMT 2009 anonymous --Other-- Other First Leaf 39.160000000000000 -86.490000000000000 6085
Thu Mar 05 00:00:00 GMT 2009 anonymous --Other-- Other All Leaves Unfolded 39.160000000000000 -86.490000000000000 6086
Thu Mar 05 00:00:00 GMT 2009 anonymous --Other-- Other First Flower 39.160000000000000 -86.490000000000000 6087
Thu Mar 26 00:00:00 GMT 2009 anonymous --Other-- Other Full Flower 39.160000000000000 -86.490000000000000 6088
Thu Mar 26 00:00:00 GMT 2009 anonymous --Other-- Other End of Flowering 39.160000000000000 -86.490000000000000 6089
Thu Mar 19 00:00:00 GMT 2009 anonymous --Other-- Other 50% Color 39.160000000000000 -86.490000000000000 6090
Thu Mar 26 00:00:00 GMT 2009 anonymous --Other-- Other 50% Leaf Fall 39.160000000000000 -86.490000000000000 6091
Thu Feb 19 00:00:00 GMT 2009 anonymous --Other-- Other First Leaf 39.160000000000000 -86.490000000000000 6071
Thu Mar 05 00:00:00 GMT 2009 anonymous --Other-- Other All Leaves Unfolded 39.160000000000000 -86.490000000000000 6072
Thu Mar 05 00:00:00 GMT 2009 anonymous --Other-- Other First Flower 39.160000000000000 -86.490000000000000 6073
Thu Mar 26 00:00:00 GMT 2009 anonymous --Other-- Other Full Flower 39.160000000000000 -86.490000000000000 6074
Thu Mar 26 00:00:00 GMT 2009 anonymous --Other-- Other End of Flowering 39.160000000000000 -86.490000000000000 6075
Thu Mar 19 00:00:00 GMT 2009 anonymous --Other-- Other 50% Color 39.160000000000000 -86.490000000000000 6076
Thu Mar 26 00:00:00 GMT 2009 anonymous --Other-- Other 50% Leaf Fall 39.160000000000000 -86.490000000000000 6077
Thu Feb 19 00:00:00 GMT 2009 anonymous --Other-- Other First Leaf 39.160000000000000 -86.490000000000000 6064
Thu Mar 05 00:00:00 GMT 2009 anonymous --Other-- Other All Leaves Unfolded 39.160000000000000 -86.490000000000000 6065
Thu Mar 05 00:00:00 GMT 2009 anonymous --Other-- Other First Flower 39.160000000000000 -86.490000000000000 6066
Thu Mar 26 00:00:00 GMT 2009 anonymous --Other-- Other Full Flower 39.160000000000000 -86.490000000000000 6067
Thu Mar 26 00:00:00 GMT 2009 anonymous --Other-- Other End of Flowering 39.160000000000000 -86.490000000000000 6068
Thu Mar 19 00:00:00 GMT 2009 anonymous --Other-- Other 50% Color 39.160000000000000 -86.490000000000000 6069
Thu Mar 26 00:00:00 GMT 2009 anonymous --Other-- Other 50% Leaf Fall 39.160000000000000 -86.490000000000000 6070
Fri Feb 27 00:00:00 GMT 2009 anonymous --Other-- Other First Leaf 39.160000000000000 -86.490000000000000 6051
Fri Mar 06 00:00:00 GMT 2009 anonymous --Other-- Other First Flower 39.160000000000000 -86.490000000000000 6052
Fri Mar 13 00:00:00 GMT 2009 anonymous --Other-- Other Full Flower 39.160000000000000 -86.490000000000000 6053
Mon Mar 23 00:00:00 GMT 2009 anonymous --Other-- Other First Leaf 39.140000000000000 -86.620000000000000 5847
Mon Mar 30 00:00:00 GMT 2009 anonymous --Other-- Other All Leaves Unfolded 39.140000000000000 -86.620000000000000 5848
Mon Mar 30 00:00:00 GMT 2009 anonymous --Other-- Other First Flower 39.140000000000000 -86.620000000000000 5849
Mon Apr 06 00:00:00 GMT 2009 anonymous --Other-- Other Full Flower 39.140000000000000 -86.620000000000000 5850
Thu Apr 02 00:00:00 GMT 2009 anonymous --Other-- Other First Leaf 39.165300000000000 -86.526400000000000 5839
Tue Feb 03 00:00:00 GMT 2009 anonymous --Other-- Other First Ripe Fruit 39.165300000000000 -86.526400000000000 5840
Tue Feb 03 00:00:00 GMT 2009 anonymous --Other-- Other First Ripe Fruit 39.165300000000000 -86.526400000000000 5841
Fri Mar 27 00:00:00 GMT 2009 anonymous --Other-- Other First Ripe Fruit 39.160000000000000 -86.490000000000000 6054
Thu Feb 19 00:00:00 GMT 2009 anonymous --Other-- Other First Leaf 39.160000000000000 -86.490000000000000 6078
Thu Mar 05 00:00:00 GMT 2009 anonymous --Other-- Other All Leaves Unfolded 39.160000000000000 -86.490000000000000 6079
Thu Mar 05 00:00:00 GMT 2009 anonymous --Other-- Other First Flower 39.160000000000000 -86.490000000000000 6080
Thu Mar 26 00:00:00 GMT 2009 anonymous --Other-- Other Full Flower 39.160000000000000 -86.490000000000000 6081
Thu Mar 26 00:00:00 GMT 2009 anonymous --Other-- Other End of Flowering 39.160000000000000 -86.490000000000000 6082
Thu Mar 19 00:00:00 GMT 2009 anonymous --Other-- Other 50% Color 39.160000000000000 -86.490000000000000 6083
Thu Mar 26 00:00:00 GMT 2009 anonymous --Other-- Other 50% Leaf Fall 39.160000000000000 -86.490000000000000 6084
Thu Apr 02 00:00:00 GMT 2009 anonymous --Other-- Other First Leaf 39.165300000000000 -86.526400000000000 5834
Tue Feb 03 00:00:00 GMT 2009 anonymous --Other-- Other First Ripe Fruit 39.165300000000000 -86.526400000000000 5842
Sun Feb 22 00:00:00 GMT 2009 anonymous --Other-- Other First Leaf 39.630000000000000 -86.110000000000000 6062
Sun Mar 08 00:00:00 GMT 2009 anonymous --Other-- Other All Leaves Unfolded 39.630000000000000 -86.110000000000000 6063
Wed Apr 08 00:00:00 GMT 2009 anonymous --Other-- Other First Leaf 39.169800000000000 -86.513500000000000 5862
Wed Apr 15 00:00:00 GMT 2009 anonymous --Other-- Other All Leaves Unfolded 39.169800000000000 -86.513500000000000 5863
Wed Apr 15 00:00:00 GMT 2009 anonymous --Other-- Other First Ripe Fruit 39.169800000000000 -86.513500000000000 5864
Mon Mar 30 00:00:00 GMT 2009 anonymous --Other-- Other First Leaf 39.140000000000000 -86.620000000000000 5855
Mon Apr 06 00:00:00 GMT 2009 anonymous --Other-- Other All Leaves Unfolded 39.140000000000000 -86.620000000000000 5856
Mon Apr 13 00:00:00 GMT 2009 anonymous --Other-- Other First Flower 39.140000000000000 -86.620000000000000 5857
Mon Mar 23 00:00:00 GMT 2009 anonymous --Other-- Other First Leaf 39.140000000000000 -86.620000000000000 5851
Mon Mar 30 00:00:00 GMT 2009 anonymous --Other-- Other All Leaves Unfolded 39.140000000000000 -86.620000000000000 5852
Mon Mar 30 00:00:00 GMT 2009 anonymous --Other-- Other First Flower 39.140000000000000 -86.620000000000000 5853
Mon Apr 06 00:00:00 GMT 2009 anonymous --Other-- Other Full Flower 39.140000000000000 -86.620000000000000 5854
Wed Apr 08 00:00:00 GMT 2009 anonymous --Other-- Other First Leaf 39.169800000000000 -86.513500000000000 5867
Wed Apr 15 00:00:00 GMT 2009 anonymous --Other-- Other All Leaves Unfolded 39.169800000000000 -86.513500000000000 5868
Sun Mar 22 00:00:00 GMT 2009 anonymous --Other-- Other First Flower 39.169800000000000 -86.513500000000000 5869
Wed Apr 01 00:00:00 GMT 2009 anonymous --Other-- Other Full Flower 39.169800000000000 -86.513500000000000 5870
Wed Apr 15 00:00:00 GMT 2009 anonymous --Other-- Other First Leaf 39.169800000000000 -86.513500000000000 5865
Wed Feb 11 00:00:00 GMT 2009 anonymous --Other-- Other First Ripe Fruit 39.169800000000000 -86.513500000000000 5866
Fri Mar 13 00:00:00 GMT 2009 anonymous --Other-- Other First Leaf 39.140000000000000 -86.620000000000000 5858
Mon Mar 23 00:00:00 GMT 2009 anonymous --Other-- Other All Leaves Unfolded 39.140000000000000 -86.620000000000000 5859
Mon Apr 06 00:00:00 GMT 2009 anonymous --Other-- Other First Flower 39.140000000000000 -86.620000000000000 5860
Mon Apr 13 00:00:00 GMT 2009 anonymous --Other-- Other Full Flower 39.140000000000000 -86.620000000000000 5861
Mon Mar 30 00:00:00 GMT 2009 anonymous --Other-- Other First Leaf 39.164300000000000 -86.526900000000000 6094
Mon Mar 30 00:00:00 GMT 2009 anonymous --Other-- Other First Leaf 39.164300000000000 -86.526900000000000 6095
Fri Mar 06 00:00:00 GMT 2009 anonymous --Other-- Other First Leaf 39.164300000000000 -86.526900000000000 6092
Fri Mar 06 00:00:00 GMT 2009 anonymous --Other-- Other First Leaf 39.164300000000000 -86.526900000000000 6093
Sun Mar 29 00:00:00 GMT 2009 anonymous --Other-- Other First Leaf 39.175300000000000 -86.514000000000000 6103
Sun Apr 12 00:00:00 GMT 2009 anonymous --Other-- Other First Flower 39.175300000000000 -86.514000000000000 6104
Sun Apr 05 00:00:00 GMT 2009 anonymous --Other-- Other First Leaf 39.175300000000000 -86.514000000000000 6101
Sun Apr 12 00:00:00 GMT 2009 anonymous --Other-- Other All Leaves Unfolded 39.175300000000000 -86.514000000000000 6102
Sun Mar 29 00:00:00 GMT 2009 anonymous --Other-- Other First Ripe Fruit 39.175300000000000 -86.514000000000000 6100
Sun Mar 29 00:00:00 GMT 2009 anonymous --Other-- Other First Ripe Fruit 39.175300000000000 -86.514000000000000 6099
Mon Apr 06 00:00:00 GMT 2009 anonymous --Other-- Other All Leaves Unfolded 39.164300000000000 -86.526900000000000 6105
Fri Feb 27 00:00:00 GMT 2009 anonymous --Other-- Other First Flower 39.164300000000000 -86.526900000000000 6106
Sun Mar 08 00:00:00 GMT 2009 anonymous --Other-- Other First Leaf 39.160000000000000 -86.490000000000000 6107
Sun Mar 22 00:00:00 GMT 2009 anonymous --Other-- Other All Leaves Unfolded 39.160000000000000 -86.490000000000000 6108
Thu Mar 12 00:00:00 GMT 2009 anonymous --Other-- Other First Leaf 39.160000000000000 -86.490000000000000 6134
Mon Mar 23 00:00:00 GMT 2009 anonymous --Other-- Other All Leaves Unfolded 39.160000000000000 -86.490000000000000 6135
Mon Mar 30 00:00:00 GMT 2009 anonymous --Other-- Other First Flower 39.160000000000000 -86.490000000000000 6136
Thu Mar 05 00:00:00 GMT 2009 anonymous --Other-- Other First Leaf 39.160000000000000 -86.490000000000000 6129
Thu Mar 12 00:00:00 GMT 2009 anonymous --Other-- Other All Leaves Unfolded 39.160000000000000 -86.490000000000000 6130
Thu Mar 12 00:00:00 GMT 2009 anonymous --Other-- Other First Flower 39.160000000000000 -86.490000000000000 6131
Thu Mar 12 00:00:00 GMT 2009 anonymous --Other-- Other First Leaf 39.160000000000000 -86.490000000000000 6137
Mon Mar 23 00:00:00 GMT 2009 anonymous --Other-- Other First Flower 39.160000000000000 -86.490000000000000 6138
Sun Mar 08 00:00:00 GMT 2009 anonymous --Other-- Other First Leaf 39.630000000000000 -86.110000000000000 6146
Sun Mar 22 00:00:00 GMT 2009 anonymous --Other-- Other All Leaves Unfolded 39.630000000000000 -86.110000000000000 6147
Sun Mar 15 00:00:00 GMT 2009 anonymous --Other-- Other First Ripe Fruit 39.630000000000000 -86.110000000000000 6148
Sat Feb 14 00:00:00 GMT 2009 anonymous --Other-- Other First Leaf 39.800000000000000 -86.370000000000000 6168
Sat Mar 07 00:00:00 GMT 2009 anonymous --Other-- Other First Leaf 39.164300000000000 -86.526900000000000 6198
Sat Mar 28 00:00:00 GMT 2009 anonymous --Other-- Other First Flower 39.164300000000000 -86.526900000000000 6199
Sun Feb 22 00:00:00 GMT 2009 anonymous --Other-- Other First Leaf 39.630000000000000 -86.110000000000000 6154
Sun Mar 08 00:00:00 GMT 2009 anonymous --Other-- Other All Leaves Unfolded 39.630000000000000 -86.110000000000000 6155
Sun Mar 29 00:00:00 GMT 2009 anonymous --Other-- Other First Flower 39.630000000000000 -86.110000000000000 6156
Sat Feb 14 00:00:00 GMT 2009 anonymous --Other-- Other First Leaf 39.800000000000000 -86.370000000000000 6160
Sat Feb 14 00:00:00 GMT 2009 anonymous --Other-- Other All Leaves Unfolded 39.800000000000000 -86.370000000000000 6161
Sat Feb 14 00:00:00 GMT 2009 anonymous --Other-- Other First Leaf 39.800000000000000 -86.370000000000000 6169
Sat Feb 14 00:00:00 GMT 2009 anonymous --Other-- Other All Leaves Unfolded 39.800000000000000 -86.370000000000000 6170
Sun Mar 08 00:00:00 GMT 2009 anonymous --Other-- Other First Leaf 39.630000000000000 -86.110000000000000 6140
Sun Mar 22 00:00:00 GMT 2009 anonymous --Other-- Other All Leaves Unfolded 39.630000000000000 -86.110000000000000 6141
Sun Mar 29 00:00:00 GMT 2009 anonymous --Other-- Other First Flower 39.630000000000000 -86.110000000000000 6142
Sun Mar 29 00:00:00 GMT 2009 anonymous --Other-- Other First Ripe Fruit 39.630000000000000 -86.110000000000000 6143
Sun Mar 08 00:00:00 GMT 2009 anonymous --Other-- Other First Flower 41.825000000000000 -71.880900000000000 6149
Tue Apr 07 00:00:00 GMT 2009 anonymous --Other-- Other Full Flower 41.825000000000000 -71.880900000000000 6150
Mon Apr 20 00:00:00 GMT 2009 anonymous --Other-- Other End of Flowering 41.825000000000000 -71.880900000000000 6151
Sat Mar 14 00:00:00 GMT 2009 anonymous --Other-- Other First Leaf 39.800000000000000 -86.370000000000000 6171
Sat Apr 04 00:00:00 GMT 2009 anonymous --Other-- Other All Leaves Unfolded 39.800000000000000 -86.370000000000000 6172
Sat Mar 14 00:00:00 GMT 2009 anonymous --Other-- Other First Ripe Fruit 39.800000000000000 -86.370000000000000 6173
Mon Apr 20 00:00:00 GMT 2009 anonymous --Other-- Other First Flower 41.812400000000000 -71.881000000000000 6176
Sat Mar 21 00:00:00 GMT 2009 anonymous --Other-- Other First Leaf 39.800000000000000 -86.370000000000000 6164
Sat Apr 04 00:00:00 GMT 2009 anonymous --Other-- Other All Leaves Unfolded 39.800000000000000 -86.370000000000000 6165
Sat Mar 28 00:00:00 GMT 2009 anonymous --Other-- Other First Flower 39.800000000000000 -86.370000000000000 6166
Sat Apr 04 00:00:00 GMT 2009 anonymous --Other-- Other Full Flower 39.800000000000000 -86.370000000000000 6167
Sun Feb 22 00:00:00 GMT 2009 anonymous --Other-- Other First Leaf 39.630000000000000 -86.110000000000000 6152
Sun Mar 08 00:00:00 GMT 2009 anonymous --Other-- Other All Leaves Unfolded 39.630000000000000 -86.110000000000000 6153
Sat Feb 14 00:00:00 GMT 2009 anonymous --Other-- Other First Leaf 39.800000000000000 -86.370000000000000 6162
Sat Feb 14 00:00:00 GMT 2009 anonymous --Other-- Other All Leaves Unfolded 39.800000000000000 -86.370000000000000 6163
Sun Feb 15 00:00:00 GMT 2009 anonymous --Other-- Other First Leaf 39.630000000000000 -86.110000000000000 6144
Sun Mar 01 00:00:00 GMT 2009 anonymous --Other-- Other First Flower 39.630000000000000 -86.110000000000000 6145
Tue Mar 03 00:00:00 GMT 2009 anonymous --Other-- Other First Leaf 39.160000000000000 -86.490000000000000 6227
Mon Mar 23 00:00:00 GMT 2009 anonymous --Other-- Other All Leaves Unfolded 39.160000000000000 -86.490000000000000 6228
Mon Mar 30 00:00:00 GMT 2009 anonymous --Other-- Other First Flower 39.160000000000000 -86.490000000000000 6229
Mon Mar 30 00:00:00 GMT 2009 anonymous --Other-- Other Full Flower 39.160000000000000 -86.490000000000000 6230
Wed Apr 08 00:00:00 GMT 2009 jstrahle --Other-- Other First Leaf 39.169800000000000 -86.513500000000000 6213
Wed Apr 15 00:00:00 GMT 2009 jstrahle --Other-- Other All Leaves Unfolded 39.169800000000000 -86.513500000000000 6214
Wed Apr 15 00:00:00 GMT 2009 jstrahle --Other-- Other First Ripe Fruit 39.169800000000000 -86.513500000000000 6215
Thu Feb 12 00:00:00 GMT 2009 anonymous --Other-- Other All Leaves Unfolded 39.160000000000000 -86.490000000000000 6246
Sun Mar 29 00:00:00 GMT 2009 anonymous --Other-- Other First Ripe Fruit 39.160000000000000 -86.490000000000000 6247
Mon Mar 09 00:00:00 GMT 2009 anonymous --Other-- Other First Leaf 39.160000000000000 -86.490000000000000 6244
Mon Apr 06 00:00:00 GMT 2009 anonymous --Other-- Other All Leaves Unfolded 39.160000000000000 -86.490000000000000 6245
Mon Mar 09 00:00:00 GMT 2009 anonymous --Other-- Other First Ripe Fruit 39.160000000000000 -86.460000000000000 6226
Mon Mar 09 00:00:00 GMT 2009 anonymous --Other-- Other First Leaf 39.160000000000000 -86.490000000000000 6248
Mon Apr 06 00:00:00 GMT 2009 anonymous --Other-- Other All Leaves Unfolded 39.160000000000000 -86.490000000000000 6249
Tue Mar 03 00:00:00 GMT 2009 anonymous --Other-- Other First Leaf 39.160000000000000 -86.490000000000000 6231
Mon Mar 23 00:00:00 GMT 2009 anonymous --Other-- Other All Leaves Unfolded 39.160000000000000 -86.490000000000000 6232
Mon Mar 30 00:00:00 GMT 2009 anonymous --Other-- Other First Flower 39.160000000000000 -86.490000000000000 6233
Mon Mar 30 00:00:00 GMT 2009 anonymous --Other-- Other Full Flower 39.160000000000000 -86.490000000000000 6234
Mon Mar 30 00:00:00 GMT 2009 anonymous --Other-- Other First Leaf 39.160000000000000 -86.490000000000000 6242
Thu Apr 02 00:00:00 GMT 2009 anonymous --Other-- Other First Leaf 39.175900000000000 -86.534600000000000 6218
Tue Apr 14 00:00:00 GMT 2009 anonymous --Other-- Other All Leaves Unfolded 39.175900000000000 -86.534600000000000 6219
Wed Apr 08 00:00:00 GMT 2009 anonymous --Other-- Other First Flower 39.175900000000000 -86.534600000000000 6220
Thu Apr 09 00:00:00 GMT 2009 anonymous --Other-- Other Full Flower 39.175900000000000 -86.534600000000000 6221
Sat Apr 04 00:00:00 GMT 2009 anonymous --Other-- Other 50% Color 39.175900000000000 -86.534600000000000 6222
Mon Mar 09 00:00:00 GMT 2009 anonymous --Other-- Other First Flower 39.160000000000000 -86.460000000000000 6235
Tue Mar 24 00:00:00 GMT 2009 anonymous --Other-- Other Full Flower 39.160000000000000 -86.460000000000000 6236
Mon Apr 06 00:00:00 GMT 2009 anonymous --Other-- Other End of Flowering 39.160000000000000 -86.460000000000000 6237
Mon Feb 23 00:00:00 GMT 2009 anonymous --Other-- Other First Leaf 39.160000000000000 -86.490000000000000 6260
Wed Mar 18 00:00:00 GMT 2009 anonymous --Other-- Other All Leaves Unfolded 39.160000000000000 -86.490000000000000 6261
Mon Mar 02 00:00:00 GMT 2009 anonymous --Other-- Other First Flower 39.160000000000000 -86.490000000000000 6262
Wed Mar 18 00:00:00 GMT 2009 anonymous --Other-- Other Full Flower 39.160000000000000 -86.490000000000000 6263
Mon Apr 06 00:00:00 GMT 2009 anonymous --Other-- Other End of Flowering 39.160000000000000 -86.490000000000000 6264
Mon Mar 09 00:00:00 GMT 2009 anonymous --Other-- Other First Leaf 39.149300000000000 -86.520400000000000 6258
Mon Mar 23 00:00:00 GMT 2009 anonymous --Other-- Other All Leaves Unfolded 39.149300000000000 -86.520400000000000 6259
Mon Mar 09 00:00:00 GMT 2009 anonymous --Other-- Other First Ripe Fruit 39.160000000000000 -86.460000000000000 6267
Mon Mar 30 00:00:00 GMT 2009 anonymous --Other-- Other First Flower 39.160000000000000 -86.460000000000000 6277
Mon Apr 06 00:00:00 GMT 2009 anonymous --Other-- Other Full Flower 39.160000000000000 -86.460000000000000 6278
Mon Mar 23 00:00:00 GMT 2009 anonymous --Other-- Other First Flower 39.160000000000000 -86.460000000000000 6268
Mon Mar 30 00:00:00 GMT 2009 anonymous --Other-- Other Full Flower 39.160000000000000 -86.460000000000000 6269
Mon Apr 06 00:00:00 GMT 2009 anonymous --Other-- Other End of Flowering 39.160000000000000 -86.460000000000000 6270
Tue Apr 21 00:00:00 GMT 2009 anonymous --Other-- Other First Leaf 42.116400000000000 -91.138600000000000 6397
Fri Apr 10 00:00:00 GMT 2009 anonymous --Other-- Other First Leaf 39.000000000000000 -86.000000000000000 6362
Fri Mar 20 00:00:00 GMT 2009 anonymous --Other-- Other First Flower 39.000000000000000 -86.000000000000000 6363
Sun Mar 22 00:00:00 GMT 2009 anonymous --Other-- Other Full Flower 39.000000000000000 -86.000000000000000 6364
Sat Mar 28 00:00:00 GMT 2009 anonymous --Other-- Other End of Flowering 39.000000000000000 -86.000000000000000 6365
Fri Apr 10 00:00:00 GMT 2009 anonymous --Other-- Other First Leaf 39.000000000000000 -86.000000000000000 6358
Fri Mar 20 00:00:00 GMT 2009 anonymous --Other-- Other First Flower 39.000000000000000 -86.000000000000000 6359
Sun Mar 22 00:00:00 GMT 2009 anonymous --Other-- Other Full Flower 39.000000000000000 -86.000000000000000 6360
Sat Mar 28 00:00:00 GMT 2009 anonymous --Other-- Other End of Flowering 39.000000000000000 -86.000000000000000 6361
Sat Apr 18 00:00:00 GMT 2009 anonymous --Other-- Other First Flower 46.538500000000000 -121.932000000000000 6453
Thu Mar 12 00:00:00 GMT 2009 anonymous --Other-- Other First Leaf 39.160000000000000 -86.490000000000000 6428
Wed Mar 25 00:00:00 GMT 2009 anonymous --Other-- Other All Leaves Unfolded 39.160000000000000 -86.490000000000000 6429
Wed Apr 01 00:00:00 GMT 2009 anonymous --Other-- Other First Flower 39.160000000000000 -86.490000000000000 6430
Wed Mar 11 00:00:00 GMT 2009 anonymous --Other-- Other First Leaf 39.160000000000000 -86.490000000000000 6437
Wed Mar 25 00:00:00 GMT 2009 anonymous --Other-- Other All Leaves Unfolded 39.160000000000000 -86.490000000000000 6438
Wed Apr 01 00:00:00 GMT 2009 anonymous --Other-- Other First Flower 39.160000000000000 -86.490000000000000 6439
Wed Mar 11 00:00:00 GMT 2009 anonymous --Other-- Other First Leaf 39.160000000000000 -86.490000000000000 6440
Wed Mar 25 00:00:00 GMT 2009 anonymous --Other-- Other All Leaves Unfolded 39.160000000000000 -86.490000000000000 6441
Wed Apr 01 00:00:00 GMT 2009 anonymous --Other-- Other First Flower 39.160000000000000 -86.490000000000000 6442
Thu Mar 12 00:00:00 GMT 2009 anonymous --Other-- Other First Leaf 39.160000000000000 -86.490000000000000 6425
Wed Mar 25 00:00:00 GMT 2009 anonymous --Other-- Other All Leaves Unfolded 39.160000000000000 -86.490000000000000 6426
Wed Apr 01 00:00:00 GMT 2009 anonymous --Other-- Other First Flower 39.160000000000000 -86.490000000000000 6427
Wed Feb 25 00:00:00 GMT 2009 anonymous --Other-- Other First Leaf 39.160000000000000 -86.490000000000000 6431
Wed Mar 04 00:00:00 GMT 2009 anonymous --Other-- Other All Leaves Unfolded 39.160000000000000 -86.490000000000000 6432
Wed Mar 25 00:00:00 GMT 2009 anonymous --Other-- Other First Flower 39.160000000000000 -86.490000000000000 6433
Wed Mar 25 00:00:00 GMT 2009 anonymous --Other-- Other First Leaf 39.160000000000000 -86.490000000000000 6443
Wed Apr 01 00:00:00 GMT 2009 anonymous --Other-- Other All Leaves Unfolded 39.160000000000000 -86.490000000000000 6444
Wed Mar 04 00:00:00 GMT 2009 anonymous --Other-- Other First Leaf 39.160000000000000 -86.490000000000000 6434
Wed Mar 25 00:00:00 GMT 2009 anonymous --Other-- Other All Leaves Unfolded 39.160000000000000 -86.490000000000000 6435
Wed Mar 25 00:00:00 GMT 2009 anonymous --Other-- Other First Flower 39.160000000000000 -86.490000000000000 6436
Wed Apr 15 00:00:00 GMT 2009 Cindy --Other-- Other First Leaf 34.416600000000000 -84.710700000000000 6518
Mon Apr 20 00:00:00 GMT 2009 Cindy --Other-- Other First Flower 34.416600000000000 -84.710700000000000 6519
Tue Apr 21 00:00:00 GMT 2009 anonymous --Other-- Other First Flower 39.701800000000000 -86.588100000000000 6477
Fri Apr 24 00:00:00 GMT 2009 anonymous --Other-- Other First Leaf 47.527700000000000 -113.710000000000000 6579
Wed Apr 22 00:00:00 GMT 2009 compobs --Other-- Other First Leaf 45.379400000000000 -93.076700000000000 6580
Mon Apr 20 00:00:00 GMT 2009 sandy.ward --Other-- Other First Leaf 39.142300000000000 -76.404800000000000 6556
Fri Apr 24 00:00:00 GMT 2009 sandy.ward --Other-- Other Full Flower 39.142300000000000 -76.404800000000000 6557
Sun Feb 15 00:00:00 GMT 2009 pcjarmoc --Other-- Other First Leaf 31.679100000000000 -106.609000000000000 6640
Wed Mar 18 00:00:00 GMT 2009 pcjarmoc --Other-- Other All Leaves Unfolded 31.679100000000000 -106.609000000000000 6641
Sun Apr 12 00:00:00 GMT 2009 pcjarmoc --Other-- Other First Flower 31.679100000000000 -106.609000000000000 6642
Fri Apr 17 00:00:00 GMT 2009 Ellen_jo --Other-- Other Full Flower 43.968900000000000 -74.164300000000000 6689
Mon Apr 13 00:00:00 GMT 2009 salinefox --Other-- Other First Leaf 42.156900000000000 -83.745100000000000 6808
Sun Apr 19 00:00:00 GMT 2009 salinefox --Other-- Other All Leaves Unfolded 42.156900000000000 -83.745100000000000 6809
Wed Apr 29 00:00:00 GMT 2009 dawnvollmer --Other-- Other First Leaf 43.062900000000000 -78.877900000000000 6813
Sat Apr 18 00:00:00 GMT 2009 anonymous --Other-- Other First Flower 33.891200000000000 -116.683000000000000 6780
Wed Apr 22 00:00:00 GMT 2009 anonymous --Other-- Other Full Flower 33.891200000000000 -116.683000000000000 6781
Sun Apr 26 00:00:00 GMT 2009 CBG Scouts --Other-- Other First Leaf 42.073600000000000 -87.730400000000000 6916
Mon Apr 27 00:00:00 GMT 2009 anonymous --Other-- Other First Flower 44.884000000000000 -91.911000000000000 6939
Fri May 01 00:00:00 GMT 2009 Cheri --Other-- Other Full Flower 40.159600000000000 -76.209700000000000 6968
Fri Apr 24 00:00:00 GMT 2009 anonymous --Other-- Other First Flower 42.296000000000000 -71.293000000000000 7011
Wed Apr 15 00:00:00 GMT 2009 anonymous --Other-- Other First Leaf 42.600000000000000 -71.500000000000000 7199
Mon Apr 27 00:00:00 GMT 2009 anonymous --Other-- Other All Leaves Unfolded 42.600000000000000 -71.500000000000000 7200
Thu Apr 30 00:00:00 GMT 2009 anonymous --Other-- Other First Flower 42.600000000000000 -71.500000000000000 7201
Fri May 08 00:00:00 GMT 2009 anonymous --Other-- Other Full Flower 42.600000000000000 -71.500000000000000 7202
Sun May 10 00:00:00 GMT 2009 alarson --Other-- Other First Flower 46.402500000000000 -94.463100000000000 7249
Thu Apr 16 00:00:00 GMT 2009 anonymous --Other-- Other First Leaf 41.994100000000000 -73.201900000000000 7309
Tue Apr 28 00:00:00 GMT 2009 anonymous --Other-- Other All Leaves Unfolded 41.994100000000000 -73.201900000000000 7310
Sun Apr 19 00:00:00 GMT 2009 anonymous --Other-- Other First Leaf 41.994100000000000 -73.201900000000000 7311
Fri May 01 00:00:00 GMT 2009 anonymous --Other-- Other All Leaves Unfolded 41.994100000000000 -73.201900000000000 7312
Mon May 04 00:00:00 GMT 2009 anonymous --Other-- Other First Flower 41.994100000000000 -73.201900000000000 7313
Sat May 09 00:00:00 GMT 2009 anonymous --Other-- Other Full Flower 41.994100000000000 -73.201900000000000 7314
Tue May 12 00:00:00 GMT 2009 anonymous --Other-- Other End of Flowering 41.994100000000000 -73.201900000000000 7315
Tue Apr 28 00:00:00 GMT 2009 anonymous --Other-- Other First Leaf 41.928000000000000 -73.059300000000000 7344
Sat May 02 00:00:00 GMT 2009 anonymous --Other-- Other All Leaves Unfolded 41.928000000000000 -73.059300000000000 7345
Sat May 02 00:00:00 GMT 2009 anonymous --Other-- Other First Flower 41.928000000000000 -73.059300000000000 7346
Tue May 05 00:00:00 GMT 2009 anonymous --Other-- Other Full Flower 41.928000000000000 -73.059300000000000 7347
Fri Apr 10 00:00:00 GMT 2009 jamielynn329 --Other-- Other First Leaf 41.928400000000000 -73.079600000000000 7378
Mon Apr 13 00:00:00 GMT 2009 jamielynn329 --Other-- Other First Flower 41.928400000000000 -73.079600000000000 7379
Wed Apr 15 00:00:00 GMT 2009 jamielynn329 --Other-- Other Full Flower 41.928400000000000 -73.079600000000000 7380
Wed May 06 00:00:00 GMT 2009 jamielynn329 --Other-- Other End of Flowering 41.928400000000000 -73.079600000000000 7381
Sun Apr 12 00:00:00 GMT 2009 anonymous --Other-- Other First Leaf 41.928400000000000 -73.079600000000000 7370
Wed Apr 15 00:00:00 GMT 2009 anonymous --Other-- Other First Flower 41.928400000000000 -73.079600000000000 7371
Sat Apr 18 00:00:00 GMT 2009 anonymous --Other-- Other Full Flower 41.928400000000000 -73.079600000000000 7372
Wed Apr 15 00:00:00 GMT 2009 anonymous --Other-- Other 50% Color 41.928400000000000 -73.079600000000000 7373
Thu Apr 09 00:00:00 GMT 2009 anonymous --Other-- Other First Leaf 41.928400000000000 -73.079600000000000 7366
Sat Apr 11 00:00:00 GMT 2009 anonymous --Other-- Other First Flower 41.928400000000000 -73.079600000000000 7367
Wed Apr 15 00:00:00 GMT 2009 anonymous --Other-- Other Full Flower 41.928400000000000 -73.079600000000000 7368
Wed May 06 00:00:00 GMT 2009 anonymous --Other-- Other End of Flowering 41.928400000000000 -73.079600000000000 7369
Sun Apr 19 00:00:00 GMT 2009 anonymous --Other-- Other All Leaves Unfolded 35.111800000000000 -80.806900000000000 7412
Wed Apr 22 00:00:00 GMT 2009 anonymous --Other-- Other First Leaf 45.153700000000000 -93.353000000000000 7387
Mon Apr 27 00:00:00 GMT 2009 anonymous --Other-- Other All Leaves Unfolded 45.153700000000000 -93.353000000000000 7388
Fri May 01 00:00:00 GMT 2009 anonymous --Other-- Other First Flower 42.295000000000000 -71.299000000000000 7397
Fri May 01 00:00:00 GMT 2009 anonymous --Other-- Other Full Flower 42.295000000000000 -71.299000000000000 7398
Sun May 10 00:00:00 GMT 2009 kava60 --Other-- Other First Flower 40.564900000000000 -106.885000000000000 7542
Mon May 04 00:00:00 GMT 2009 jessicaprice --Other-- Other First Leaf 39.000000000000000 -104.000000000000000 7576
Fri May 15 00:00:00 GMT 2009 jessicaprice --Other-- Other All Leaves Unfolded 39.000000000000000 -104.000000000000000 7577
Mon May 18 00:00:00 GMT 2009 anonymous --Other-- Other First Flower 33.665300000000000 -81.408900000000000 7611
Fri Apr 24 00:00:00 GMT 2009 anonymous --Other-- Other First Leaf 39.677700000000000 -104.964000000000000 7915
Mon May 04 00:00:00 GMT 2009 anonymous --Other-- Other First Leaf 39.674300000000000 -104.963000000000000 7914
Fri Mar 20 00:00:00 GMT 2009 andersnl --Other-- Other All Leaves Unfolded 35.501800000000000 -80.859500000000000 8001
Fri Mar 20 00:00:00 GMT 2009 andersnl --Other-- Other First Leaf 35.501800000000000 -80.859500000000000 8000
Fri Mar 20 00:00:00 GMT 2009 andersnl --Other-- Other First Leaf 35.501800000000000 -80.859500000000000 8045
Sat Mar 21 00:00:00 GMT 2009 andersnl --Other-- Other All Leaves Unfolded 35.501800000000000 -80.859500000000000 8046
Sun Mar 29 00:00:00 GMT 2009 andersnl --Other-- Other First Flower 35.501800000000000 -80.859500000000000 8047
Fri Apr 03 00:00:00 GMT 2009 andersnl --Other-- Other Full Flower 35.501800000000000 -80.859500000000000 8048
Wed Apr 15 00:00:00 GMT 2009 andersnl --Other-- Other End of Flowering 35.501800000000000 -80.859500000000000 8049
Wed Apr 29 00:00:00 GMT 2009 andersnl --Other-- Other First Ripe Fruit 35.501800000000000 -80.859500000000000 8050
Tue May 26 00:00:00 GMT 2009 andersnl --Other-- Other 50% Color 35.501800000000000 -80.859500000000000 8051
Sat May 09 00:00:00 GMT 2009 jwiley --Other-- Other First Leaf 42.052200000000000 -76.064500000000000 8121
Sat May 23 00:00:00 GMT 2009 jwiley --Other-- Other All Leaves Unfolded 42.052200000000000 -76.064500000000000 8122
Sat May 16 00:00:00 GMT 2009 jwiley --Other-- Other First Flower 42.052200000000000 -76.064500000000000 8123
Sat May 23 00:00:00 GMT 2009 jwiley --Other-- Other Full Flower 42.052200000000000 -76.064500000000000 8124
Tue May 26 00:00:00 GMT 2009 jwiley --Other-- Other End of Flowering 42.052200000000000 -76.064500000000000 8125
Fri Apr 03 00:00:00 GMT 2009 anonymous --Other-- Other First Leaf 47.580400000000000 -122.030000000000000 8111
Wed Apr 22 00:00:00 GMT 2009 anonymous --Other-- Other All Leaves Unfolded 47.580400000000000 -122.030000000000000 8112
Wed Apr 22 00:00:00 GMT 2009 anonymous --Other-- Other First Flower 47.580400000000000 -122.030000000000000 8113
Fri May 01 00:00:00 GMT 2009 anonymous --Other-- Other Full Flower 47.580400000000000 -122.030000000000000 8114
Sun Mar 15 00:00:00 GMT 2009 anonymous --Other-- Other First Leaf 47.580300000000000 -122.030000000000000 8175
Wed Apr 15 00:00:00 GMT 2009 anonymous --Other-- Other All Leaves Unfolded 47.580300000000000 -122.030000000000000 8176
Wed Jun 03 00:00:00 GMT 2009 anonymous --Other-- Other First Flower 47.580300000000000 -122.030000000000000 8177
Mon Apr 20 00:00:00 GMT 2009 anonymous --Other-- Other First Leaf 47.580300000000000 -122.030000000000000 8171
Mon Apr 27 00:00:00 GMT 2009 anonymous --Other-- Other All Leaves Unfolded 47.580300000000000 -122.030000000000000 8172
Thu Apr 30 00:00:00 GMT 2009 anonymous --Other-- Other First Flower 47.580300000000000 -122.030000000000000 8173
Fri May 15 00:00:00 GMT 2009 anonymous --Other-- Other Full Flower 47.580300000000000 -122.030000000000000 8174
Fri Feb 20 00:00:00 GMT 2009 anonymous --Other-- Other First Leaf 47.580300000000000 -122.030000000000000 8187
Fri May 01 00:00:00 GMT 2009 anonymous --Other-- Other All Leaves Unfolded 47.580300000000000 -122.030000000000000 8188
Thu Jun 04 00:00:00 GMT 2009 anonymous --Other-- Other First Flower 47.580300000000000 -122.030000000000000 8189
Thu Apr 23 00:00:00 GMT 2009 anonymous --Other-- Other First Leaf 47.580300000000000 -122.030000000000000 8157
Fri May 01 00:00:00 GMT 2009 anonymous --Other-- Other All Leaves Unfolded 47.580300000000000 -122.030000000000000 8158
Sat Mar 14 00:00:00 GMT 2009 anonymous --Other-- Other First Flower 47.580300000000000 -122.030000000000000 8159
Tue May 05 00:00:00 GMT 2009 anonymous --Other-- Other Full Flower 47.580300000000000 -122.030000000000000 8160
Sat May 16 00:00:00 GMT 2009 anonymous --Other-- Other End of Flowering 47.580300000000000 -122.030000000000000 8161
Fri Apr 03 00:00:00 GMT 2009 anonymous --Other-- Other First Leaf 47.580300000000000 -122.030000000000000 8155
Fri May 01 00:00:00 GMT 2009 anonymous --Other-- Other All Leaves Unfolded 47.580300000000000 -122.030000000000000 8156
Sat Mar 28 00:00:00 GMT 2009 anonymous --Other-- Other First Leaf 47.580300000000000 -122.030000000000000 8144
Mon Apr 13 00:00:00 GMT 2009 anonymous --Other-- Other All Leaves Unfolded 47.580300000000000 -122.030000000000000 8145
Fri May 29 00:00:00 GMT 2009 anonymous --Other-- Other First Flower 47.580300000000000 -122.030000000000000 8146
Mon Jun 01 00:00:00 GMT 2009 anonymous --Other-- Other Full Flower 47.580300000000000 -122.030000000000000 8147
Sat Mar 28 00:00:00 GMT 2009 anonymous --Other-- Other First Leaf 47.580300000000000 -122.030000000000000 8148
Mon Apr 13 00:00:00 GMT 2009 anonymous --Other-- Other All Leaves Unfolded 47.580300000000000 -122.030000000000000 8149
Fri May 29 00:00:00 GMT 2009 anonymous --Other-- Other First Flower 47.580300000000000 -122.030000000000000 8150
Mon Jun 01 00:00:00 GMT 2009 anonymous --Other-- Other Full Flower 47.580300000000000 -122.030000000000000 8151
Wed Apr 15 00:00:00 GMT 2009 anonymous --Other-- Other First Leaf 47.580300000000000 -122.030000000000000 8162
Fri May 01 00:00:00 GMT 2009 anonymous --Other-- Other All Leaves Unfolded 47.580300000000000 -122.030000000000000 8163
Mon Apr 06 00:00:00 GMT 2009 anonymous --Other-- Other First Flower 47.580300000000000 -122.030000000000000 8164
Mon May 25 00:00:00 GMT 2009 anonymous --Other-- Other Full Flower 47.580300000000000 -122.030000000000000 8165
Tue Mar 03 00:00:00 GMT 2009 anonymous --Other-- Other First Leaf 47.580400000000000 -122.030000000000000 8166
Sat Apr 04 00:00:00 GMT 2009 anonymous --Other-- Other All Leaves Unfolded 47.580400000000000 -122.030000000000000 8167
Sat Apr 04 00:00:00 GMT 2009 anonymous --Other-- Other First Flower 47.580400000000000 -122.030000000000000 8168
Sun May 03 00:00:00 GMT 2009 anonymous --Other-- Other Full Flower 47.580400000000000 -122.030000000000000 8169
Sat Apr 18 00:00:00 GMT 2009 anonymous --Other-- Other First Leaf 47.580300000000000 -122.030000000000000 8199
Mon May 11 00:00:00 GMT 2009 anonymous --Other-- Other All Leaves Unfolded 47.580300000000000 -122.030000000000000 8200
Thu May 28 00:00:00 GMT 2009 anonymous --Other-- Other First Flower 47.580300000000000 -122.030000000000000 8201
Thu Jun 04 00:00:00 GMT 2009 anonymous --Other-- Other Full Flower 47.580300000000000 -122.030000000000000 8202
Fri May 01 00:00:00 GMT 2009 chilibob --Other-- Other Full Flower 47.580400000000000 -122.030000000000000 8197
Tue Mar 03 00:00:00 GMT 2009 anonymous --Other-- Other First Leaf 47.580300000000000 -122.030000000000000 8190
Fri Mar 13 00:00:00 GMT 2009 anonymous --Other-- Other All Leaves Unfolded 47.580300000000000 -122.030000000000000 8191
Tue Apr 14 00:00:00 GMT 2009 anonymous --Other-- Other First Flower 47.580300000000000 -122.030000000000000 8192
Sat Mar 28 00:00:00 GMT 2009 anonymous --Other-- Other Full Flower 47.580300000000000 -122.030000000000000 8193
Wed Apr 15 00:00:00 GMT 2009 anonymous --Other-- Other First Leaf 47.580300000000000 -122.030000000000000 8194
Fri May 29 00:00:00 GMT 2009 anonymous --Other-- Other All Leaves Unfolded 47.580300000000000 -122.030000000000000 8195
Thu Jun 04 00:00:00 GMT 2009 anonymous --Other-- Other First Flower 47.580300000000000 -122.030000000000000 8196
Wed Jun 24 00:00:00 GMT 2009 anonymous --Other-- Other Full Flower 35.089500000000000 -82.096900000000000 8312
Wed Jun 24 00:00:00 GMT 2009 anonymous --Other-- Other First Ripe Fruit 35.089500000000000 -82.096900000000000 8314
Wed Jun 24 00:00:00 GMT 2009 anonymous --Other-- Other First Flower 35.089500000000000 -82.096900000000000 8317
Wed Jun 24 00:00:00 GMT 2009 anonymous --Other-- Other First Ripe Fruit 35.089500000000000 -82.096900000000000 8313
Wed Jun 24 00:00:00 GMT 2009 anonymous --Other-- Other Full Flower 35.089500000000000 -82.096900000000000 8315
Wed Jun 24 00:00:00 GMT 2009 anonymous --Other-- Other First Flower 35.089500000000000 -82.096900000000000 8316
Sat May 09 00:00:00 GMT 2009 anonymous --Other-- Other Full Flower 35.089500000000000 -82.096900000000000 8353
Tue Jun 30 00:00:00 GMT 2009 anonymous --Other-- Other First Flower 35.089500000000000 -82.096900000000000 8352
Wed Jun 24 00:00:00 GMT 2009 anonymous --Other-- Other First Flower 35.089500000000000 -82.096900000000000 8357
Thu Jul 09 00:00:00 GMT 2009 anonymous --Other-- Other Full Flower 35.089500000000000 -82.096900000000000 8358
Fri May 01 00:00:00 GMT 2009 troot --Other-- Other First Leaf 45.074700000000000 -92.978000000000000 8399
Tue May 12 00:00:00 GMT 2009 troot --Other-- Other All Leaves Unfolded 45.074700000000000 -92.978000000000000 8400
Wed Apr 22 00:00:00 GMT 2009 troot --Other-- Other First Flower 45.074700000000000 -92.978000000000000 8401
Wed Apr 29 00:00:00 GMT 2009 troot --Other-- Other Full Flower 45.074700000000000 -92.978000000000000 8402
Tue May 05 00:00:00 GMT 2009 troot --Other-- Other End of Flowering 45.074700000000000 -92.978000000000000 8403
Wed Jun 03 00:00:00 GMT 2009 troot --Other-- Other First Ripe Fruit 45.074700000000000 -92.978000000000000 8404
Fri Mar 20 00:00:00 GMT 2009 jburke --Other-- Other Full Flower 42.274300000000000 -122.941000000000000 8408
Thu Mar 05 00:00:00 GMT 2009 ride666 --Other-- Other First Leaf 34.196700000000000 -119.199000000000000 8458
Fri May 08 00:00:00 GMT 2009 ride666 --Other-- Other All Leaves Unfolded 34.196700000000000 -119.199000000000000 8459
Sat Mar 07 00:00:00 GMT 2009 ride666 --Other-- Other First Leaf 34.196500000000000 -119.199000000000000 8456
Sat May 09 00:00:00 GMT 2009 ride666 --Other-- Other All Leaves Unfolded 34.196500000000000 -119.199000000000000 8457
Fri Mar 06 00:00:00 GMT 2009 ride666 --Other-- Other First Leaf 34.197500000000000 -119.132000000000000 8454
Tue Apr 14 00:00:00 GMT 2009 ride666 --Other-- Other First Flower 34.197500000000000 -119.132000000000000 8455
Thu Aug 13 00:00:00 GMT 2009 bgcop --Other-- Other 50% Color 34.197500000000000 -119.199000000000000 8516
Mon Jun 29 00:00:00 GMT 2009 bgcop --Other-- Other All Leaves Unfolded 34.197500000000000 -119.199000000000000 8519
Mon Jul 27 00:00:00 GMT 2009 bgcop --Other-- Other First Flower 34.197500000000000 -119.199000000000000 8520
Thu Aug 13 00:00:00 GMT 2009 bgcop --Other-- Other End of Flowering 34.197500000000000 -119.199000000000000 8525
Sun May 24 00:00:00 GMT 2009 anonymous --Other-- Other First Leaf 34.197600000000000 -119.136000000000000 8530
Wed Aug 12 00:00:00 GMT 2009 anonymous --Other-- Other First Flower 34.197600000000000 -119.136000000000000 8531
Wed Aug 12 00:00:00 GMT 2009 anonymous --Other-- Other 50% Color 34.197600000000000 -119.136000000000000 8532
Sun Aug 16 00:00:00 GMT 2009 anonymous --Other-- Other Full Flower 34.202400000000000 -119.180000000000000 8545
Tue Aug 11 00:00:00 GMT 2009 anonymous --Other-- Other Full Flower 34.155000000000000 -119.119000000000000 8556
Tue Aug 18 00:00:00 GMT 2009 anonymous --Other-- Other End of Flowering 34.155000000000000 -119.119000000000000 8557
Wed Aug 12 00:00:00 GMT 2009 anonymous --Other-- Other First Flower 34.155000000000000 -119.119000000000000 8550
Tue Aug 18 00:00:00 GMT 2009 anonymous --Other-- Other 50% Color 34.155000000000000 -119.119000000000000 8551
Thu Jul 09 00:00:00 GMT 2009 anonymous --Other-- Other First Flower 34.155000000000000 -119.119000000000000 8558
Wed Aug 12 00:00:00 GMT 2009 anonymous --Other-- Other Full Flower 34.155000000000000 -119.119000000000000 8559
Tue Aug 18 00:00:00 GMT 2009 anonymous --Other-- Other End of Flowering 34.155000000000000 -119.119000000000000 8560
Wed Aug 12 00:00:00 GMT 2009 anonymous --Other-- Other All Leaves Unfolded 34.155000000000000 -119.119000000000000 8552
Tue Aug 18 00:00:00 GMT 2009 anonymous --Other-- Other End of Flowering 34.155000000000000 -119.119000000000000 8553
Sun Jul 12 00:00:00 GMT 2009 anonymous --Other-- Other All Leaves Unfolded 34.155000000000000 -119.119000000000000 8554
Tue Aug 18 00:00:00 GMT 2009 anonymous --Other-- Other 50% Color 34.155000000000000 -119.119000000000000 8555
Tue Aug 18 00:00:00 GMT 2009 anonymous --Other-- Other End of Flowering 34.155000000000000 -119.119000000000000 8549
Sat May 09 00:00:00 GMT 2009 anonymous --Other-- Other First Flower 34.155000000000000 -119.120000000000000 8561
Sat Jul 18 00:00:00 GMT 2009 anonymous --Other-- Other Full Flower 34.155000000000000 -119.120000000000000 8562
Wed Aug 12 00:00:00 GMT 2009 anonymous --Other-- Other First Leaf 34.195000000000000 -119.176000000000000 8564
Wed Aug 12 00:00:00 GMT 2009 anonymous --Other-- Other First Flower 34.195000000000000 -119.176000000000000 8565
Wed Aug 12 00:00:00 GMT 2009 anonymous --Other-- Other 50% Color 34.195000000000000 -119.176000000000000 8566
Wed Aug 12 00:00:00 GMT 2009 anonymous --Other-- Other First Leaf 34.195000000000000 -119.176000000000000 8567
Wed Aug 12 00:00:00 GMT 2009 anonymous --Other-- Other First Flower 34.195000000000000 -119.176000000000000 8568
Wed Aug 12 00:00:00 GMT 2009 anonymous --Other-- Other 50% Color 34.195000000000000 -119.176000000000000 8569
Wed Aug 12 00:00:00 GMT 2009 anonymous --Other-- Other First Leaf 34.195000000000000 -119.176000000000000 8570
Wed Aug 12 00:00:00 GMT 2009 anonymous --Other-- Other First Flower 34.195000000000000 -119.176000000000000 8571
Wed Aug 12 00:00:00 GMT 2009 anonymous --Other-- Other 50% Color 34.195000000000000 -119.176000000000000 8572
Wed Aug 12 00:00:00 GMT 2009 anonymous --Other-- Other First Leaf 34.195000000000000 -119.176000000000000 8578
Wed Aug 12 00:00:00 GMT 2009 anonymous --Other-- Other First Flower 34.195000000000000 -119.176000000000000 8579
Wed Aug 12 00:00:00 GMT 2009 anonymous --Other-- Other 50% Color 34.195000000000000 -119.176000000000000 8580
Wed Aug 12 00:00:00 GMT 2009 anonymous --Other-- Other First Leaf 34.195000000000000 -119.176000000000000 8575
Wed Aug 12 00:00:00 GMT 2009 anonymous --Other-- Other Full Flower 34.195000000000000 -119.176000000000000 8576
Wed Aug 12 00:00:00 GMT 2009 anonymous --Other-- Other 50% Color 34.195000000000000 -119.176000000000000 8577
Wed Aug 12 00:00:00 GMT 2009 anonymous --Other-- Other First Leaf 34.195000000000000 -119.176000000000000 8573
Wed Aug 12 00:00:00 GMT 2009 anonymous --Other-- Other 50% Color 34.195000000000000 -119.176000000000000 8574
Wed Aug 12 00:00:00 GMT 2009 anonymous --Other-- Other First Flower 34.195000000000000 -119.176000000000000 8581
Wed Aug 12 00:00:00 GMT 2009 anonymous --Other-- Other 50% Color 34.195000000000000 -119.176000000000000 8582
Sun Sep 20 00:00:00 GMT 2009 palaback --Other-- Other First Ripe Fruit 46.840100000000000 -113.990000000000000 8612
Sun Sep 27 00:00:00 GMT 2009 anonymous --Other-- Other 50% Color 45.347700000000000 -95.238400000000000 8764
Sun Oct 04 00:00:00 GMT 2009 anonymous --Other-- Other 50% Leaf Fall 45.347700000000000 -95.238400000000000 8765
Wed Oct 14 00:00:00 GMT 2009 bhouse@izoom.net --Other-- Other First Leaf 45.432100000000000 -93.788900000000000 8779
Thu Nov 05 00:00:00 GMT 2009 anonymous --Other-- Other 50% Color 35.788200000000000 -86.322100000000000 8915
Mon Oct 26 00:00:00 GMT 2009 owensj --Other-- Other 50% Color 35.673800000000000 -86.473000000000000 8917
Thu Nov 05 00:00:00 GMT 2009 owensj --Other-- Other 50% Leaf Fall 35.673800000000000 -86.473000000000000 8918
Tue Oct 06 00:00:00 GMT 2009 anonymous --Other-- Other 50% Color 45.691200000000000 -92.961800000000000 8949
Sat Oct 24 00:00:00 GMT 2009 anonymous --Other-- Other 50% Leaf Fall 45.691200000000000 -92.961800000000000 8950
Tue Oct 06 00:00:00 GMT 2009 anonymous --Other-- Other 50% Color 45.691200000000000 -92.961800000000000 8947
Sat Oct 24 00:00:00 GMT 2009 anonymous --Other-- Other 50% Leaf Fall 45.691200000000000 -92.961800000000000 8948
Wed Jan 13 00:00:00 GMT 2010 anonymous --Other-- Other First Leaf 39.984700000000000 -105.268000000000000 9064
Tue Feb 02 00:00:00 GMT 2010 anonymous --Other-- Other First Leaf 35.405100000000000 -80.906200000000000 9094
Sun Feb 07 00:00:00 GMT 2010 anonymous --Other-- Other All Leaves Unfolded 35.405100000000000 -80.906200000000000 9095
Sun Feb 14 00:00:00 GMT 2010 anonymous --Other-- Other First Flower 35.405100000000000 -80.906200000000000 9096
Tue Feb 16 00:00:00 GMT 2010 anonymous --Other-- Other Full Flower 35.405100000000000 -80.906200000000000 9097
Tue Oct 06 00:00:00 GMT 2009 anonymous --Other-- Other All Leaves Unfolded 39.897400000000000 -105.628000000000000 9131
Mon Jul 06 00:00:00 GMT 2009 anonymous --Other-- Other First Flower 39.897400000000000 -105.628000000000000 9132
Mon Feb 09 00:00:00 GMT 2009 anonymous --Other-- Other Full Flower 39.897400000000000 -105.628000000000000 9133
Sat Jun 06 00:00:00 GMT 2009 anonymous --Other-- Other 50% Color 39.897400000000000 -105.628000000000000 9134
Wed Oct 14 00:00:00 GMT 2009 anonymous --Other-- Other 50% Leaf Fall 39.897400000000000 -105.628000000000000 9135
Sun Mar 14 00:00:00 GMT 2010 anonymous --Other-- Other Full Flower 46.878300000000000 -113.987000000000000 9194
Sat Mar 13 00:00:00 GMT 2010 anonymous --Other-- Other First Leaf 57.041100000000000 -135.275000000000000 9261
Sat Mar 27 00:00:00 GMT 2010 anonymous --Other-- Other First Leaf 42.810000000000000 -87.750000000000000 9296
Mon Mar 22 00:00:00 GMT 2010 anonymous --Other-- Other First Leaf 40.345200000000000 -74.673300000000000 9306
Sat Mar 27 00:00:00 GMT 2010 anonymous --Other-- Other First Leaf 35.097600000000000 -106.495000000000000 9320
Fri Apr 02 00:00:00 GMT 2010 anonymous --Other-- Other First Leaf 42.477100000000000 -71.311900000000000 9384
Tue Mar 23 00:00:00 GMT 2010 anonymous --Other-- Other Full Flower 35.068200000000000 -89.733600000000000 9421
Thu Apr 01 00:00:00 GMT 2010 anonymous --Other-- Other First Leaf 40.000000000000000 -105.000000000000000 9481
Thu Mar 25 00:00:00 GMT 2010 anonymous --Other-- Other First Leaf 39.166400000000000 -86.509900000000000 9565
Mon Apr 12 00:00:00 GMT 2010 anonymous --Other-- Other All Leaves Unfolded 39.166400000000000 -86.509900000000000 9566
Wed Apr 14 00:00:00 GMT 2010 anonymous --Other-- Other All Leaves Unfolded 34.136700000000000 -118.151000000000000 9592
Wed Apr 14 00:00:00 GMT 2010 anonymous --Other-- Other All Leaves Unfolded 34.136700000000000 -118.154000000000000 9594
Wed Apr 14 00:00:00 GMT 2010 anonymous --Other-- Other Full Flower 34.136700000000000 -118.154000000000000 9596
Wed Apr 14 00:00:00 GMT 2010 anonymous --Other-- Other All Leaves Unfolded 34.136700000000000 -118.154000000000000 9593
Wed Apr 14 00:00:00 GMT 2010 anonymous --Other-- Other All Leaves Unfolded 34.136700000000000 -118.154000000000000 9601
Wed Apr 14 00:00:00 GMT 2010 anonymous --Other-- Other First Flower 34.136700000000000 -118.154000000000000 9602
Fri Apr 09 00:00:00 GMT 2010 anonymous --Other-- Other First Leaf 39.177800000000000 -86.529700000000000 9597
Wed Apr 14 00:00:00 GMT 2010 anonymous --Other-- Other All Leaves Unfolded 39.177800000000000 -86.529700000000000 9598
Fri Apr 02 00:00:00 GMT 2010 anonymous --Other-- Other First Flower 39.177800000000000 -86.529700000000000 9599
Mon Apr 05 00:00:00 GMT 2010 anonymous --Other-- Other Full Flower 39.177800000000000 -86.529700000000000 9600
Wed Apr 14 00:00:00 GMT 2010 anonymous --Other-- Other All Leaves Unfolded 34.136700000000000 -118.154000000000000 9595
Wed Apr 14 00:00:00 GMT 2010 anonymous --Other-- Other Full Flower 34.136700000000000 -118.154000000000000 9604
Wed Apr 14 00:00:00 GMT 2010 anonymous --Other-- Other First Leaf 34.136700000000000 -118.154000000000000 9605
Wed Apr 14 00:00:00 GMT 2010 anonymous --Other-- Other First Leaf 34.136700000000000 -118.154000000000000 9606
Wed Apr 14 00:00:00 GMT 2010 anonymous --Other-- Other Full Flower 34.136700000000000 -118.154000000000000 9603
Wed Apr 14 00:00:00 GMT 2010 anonymous --Other-- Other Full Flower 34.136700000000000 -118.154000000000000 9607
Fri Feb 19 00:00:00 GMT 2010 anonymous --Other-- Other First Leaf 38.800000000000000 -86.370000000000000 9620
Fri Mar 05 00:00:00 GMT 2010 anonymous --Other-- Other All Leaves Unfolded 38.800000000000000 -86.370000000000000 9621
Fri Mar 26 00:00:00 GMT 2010 anonymous --Other-- Other First Flower 38.800000000000000 -86.370000000000000 9622
Fri Apr 02 00:00:00 GMT 2010 anonymous --Other-- Other Full Flower 38.800000000000000 -86.370000000000000 9623
Thu Mar 25 00:00:00 GMT 2010 anonymous --Other-- Other First Flower 39.167900000000000 -86.512400000000000 9624
Thu Apr 01 00:00:00 GMT 2010 anonymous --Other-- Other Full Flower 39.167900000000000 -86.512400000000000 9625
Fri Mar 12 00:00:00 GMT 2010 anonymous --Other-- Other First Leaf 39.160000000000000 -86.490000000000000 9652
Fri Mar 12 00:00:00 GMT 2010 anonymous --Other-- Other All Leaves Unfolded 39.160000000000000 -86.490000000000000 9653
Fri Mar 26 00:00:00 GMT 2010 anonymous --Other-- Other First Flower 39.160000000000000 -86.490000000000000 9654
Thu Apr 01 00:00:00 GMT 2010 anonymous --Other-- Other Full Flower 39.160000000000000 -86.490000000000000 9655
Tue Apr 06 00:00:00 GMT 2010 anonymous --Other-- Other End of Flowering 39.160000000000000 -86.490000000000000 9656
Thu Apr 01 00:00:00 GMT 2010 anonymous --Other-- Other 50% Color 39.160000000000000 -86.490000000000000 9657
Fri Apr 09 00:00:00 GMT 2010 anonymous --Other-- Other First Leaf 39.177800000000000 -86.529700000000000 9648
Wed Apr 14 00:00:00 GMT 2010 anonymous --Other-- Other All Leaves Unfolded 39.177800000000000 -86.529700000000000 9649
Fri Apr 02 00:00:00 GMT 2010 anonymous --Other-- Other First Flower 39.177800000000000 -86.529700000000000 9650
Mon Apr 05 00:00:00 GMT 2010 anonymous --Other-- Other Full Flower 39.177800000000000 -86.529700000000000 9651
Thu Mar 04 00:00:00 GMT 2010 anonymous --Other-- Other First Leaf 39.800000000000000 -86.370000000000000 9694
Thu Mar 18 00:00:00 GMT 2010 anonymous --Other-- Other All Leaves Unfolded 39.800000000000000 -86.370000000000000 9695
Tue Apr 06 00:00:00 GMT 2010 anonymous --Other-- Other Full Flower 39.800000000000000 -86.370000000000000 9696
Sat Mar 06 00:00:00 GMT 2010 anonymous --Other-- Other First Leaf 39.000000000000000 -86.000000000000000 9701
Sat Mar 13 00:00:00 GMT 2010 anonymous --Other-- Other First Flower 39.000000000000000 -86.000000000000000 9702
Sat Mar 06 00:00:00 GMT 2010 anonymous --Other-- Other First Flower 39.173800000000000 -86.492300000000000 9716
Sat Mar 13 00:00:00 GMT 2010 anonymous --Other-- Other Full Flower 39.173800000000000 -86.492300000000000 9717
Fri Apr 02 00:00:00 GMT 2010 anonymous --Other-- Other First Leaf 39.237400000000000 -86.566800000000000 9777
Fri Apr 09 00:00:00 GMT 2010 anonymous --Other-- Other All Leaves Unfolded 39.237400000000000 -86.566800000000000 9778
Mon Mar 08 00:00:00 GMT 2010 anonymous --Other-- Other First Leaf 39.165300000000000 -86.526400000000000 9769
Mon Mar 22 00:00:00 GMT 2010 anonymous --Other-- Other All Leaves Unfolded 39.165300000000000 -86.526400000000000 9770
Mon Apr 05 00:00:00 GMT 2010 anonymous --Other-- Other First Flower 39.165300000000000 -86.526400000000000 9771
Thu Mar 04 00:00:00 GMT 2010 anonymous --Other-- Other First Leaf 39.800000000000000 -86.370000000000000 9759
Thu Mar 18 00:00:00 GMT 2010 anonymous --Other-- Other First Flower 39.800000000000000 -86.370000000000000 9760
Tue Apr 06 00:00:00 GMT 2010 anonymous --Other-- Other Full Flower 39.800000000000000 -86.370000000000000 9761
Fri Feb 19 00:00:00 GMT 2010 anonymous --Other-- Other First Leaf 39.167200000000000 -86.512400000000000 9801
Mon Mar 08 00:00:00 GMT 2010 anonymous --Other-- Other All Leaves Unfolded 39.167200000000000 -86.512400000000000 9802
Tue Mar 23 00:00:00 GMT 2010 anonymous --Other-- Other First Flower 39.167200000000000 -86.512400000000000 9803
Wed Mar 31 00:00:00 GMT 2010 anonymous --Other-- Other Full Flower 39.167200000000000 -86.512400000000000 9804
Thu Apr 01 00:00:00 GMT 2010 anonymous --Other-- Other First Leaf 39.160000000000000 -86.530000000000000 9790
Mon Mar 22 00:00:00 GMT 2010 anonymous --Other-- Other First Leaf 39.164900000000000 -86.493000000000000 9798
Sat Apr 03 00:00:00 GMT 2010 anonymous --Other-- Other All Leaves Unfolded 39.164900000000000 -86.493000000000000 9799
Sat Apr 03 00:00:00 GMT 2010 anonymous --Other-- Other First Flower 39.164900000000000 -86.493000000000000 9800
Thu Apr 01 00:00:00 GMT 2010 anonymous --Other-- Other First Leaf 39.160000000000000 -86.530000000000000 9789
Fri Feb 26 00:00:00 GMT 2010 anonymous --Other-- Other First Leaf 39.165300000000000 -86.526400000000000 9666
Sun Mar 07 00:00:00 GMT 2010 anonymous --Other-- Other First Flower 39.165300000000000 -86.526400000000000 9668
Mon Mar 15 00:00:00 GMT 2010 anonymous --Other-- Other Full Flower 39.165300000000000 -86.526400000000000 9669
Thu Apr 15 00:00:00 GMT 2010 anonymous --Other-- Other End of Flowering 39.165300000000000 -86.526400000000000 9670
Fri Mar 26 00:00:00 GMT 2010 anonymous --Other-- Other First Leaf 39.059600000000000 -86.496900000000000 9681
Thu Apr 15 00:00:00 GMT 2010 anonymous --Other-- Other All Leaves Unfolded 39.059600000000000 -86.496900000000000 9682
Thu Apr 15 00:00:00 GMT 2010 anonymous --Other-- Other First Flower 39.059600000000000 -86.496900000000000 9683
Thu Apr 15 00:00:00 GMT 2010 anonymous --Other-- Other Full Flower 39.059600000000000 -86.496900000000000 9684
Fri Mar 26 00:00:00 GMT 2010 anonymous --Other-- Other First Leaf 39.059600000000000 -86.496900000000000 9673
Thu Apr 15 00:00:00 GMT 2010 anonymous --Other-- Other All Leaves Unfolded 39.059600000000000 -86.496900000000000 9674
Thu Apr 15 00:00:00 GMT 2010 anonymous --Other-- Other First Flower 39.059600000000000 -86.496900000000000 9675
Thu Apr 15 00:00:00 GMT 2010 anonymous --Other-- Other Full Flower 39.059600000000000 -86.496900000000000 9676
Fri Mar 26 00:00:00 GMT 2010 anonymous --Other-- Other First Leaf 39.059600000000000 -86.496900000000000 9677
Thu Apr 15 00:00:00 GMT 2010 anonymous --Other-- Other All Leaves Unfolded 39.059600000000000 -86.496900000000000 9678
Thu Apr 15 00:00:00 GMT 2010 anonymous --Other-- Other First Flower 39.059600000000000 -86.496900000000000 9679
Thu Apr 15 00:00:00 GMT 2010 anonymous --Other-- Other Full Flower 39.059600000000000 -86.496900000000000 9680
Tue Mar 09 00:00:00 GMT 2010 anonymous --Other-- Other First Leaf 39.958000000000000 -86.313400000000000 9829
Tue Apr 13 00:00:00 GMT 2010 anonymous --Other-- Other All Leaves Unfolded 39.958000000000000 -86.313400000000000 9830
Tue Mar 23 00:00:00 GMT 2010 anonymous --Other-- Other First Leaf 39.165300000000000 -86.526400000000000 9940
Wed Mar 31 00:00:00 GMT 2010 anonymous --Other-- Other First Flower 39.165300000000000 -86.526400000000000 9941
Thu Apr 08 00:00:00 GMT 2010 anonymous --Other-- Other End of Flowering 39.165300000000000 -86.526400000000000 9942
Tue Mar 09 00:00:00 GMT 2010 anonymous --Other-- Other First Leaf 39.958000000000000 -86.313400000000000 9831
Tue Apr 13 00:00:00 GMT 2010 anonymous --Other-- Other All Leaves Unfolded 39.958000000000000 -86.313400000000000 9832
Thu Mar 25 00:00:00 GMT 2010 anonymous --Other-- Other First Leaf 39.800000000000000 -86.370000000000000 9833
Thu Mar 25 00:00:00 GMT 2010 anonymous --Other-- Other First Leaf 39.800000000000000 -86.370000000000000 9834
Tue Mar 23 00:00:00 GMT 2010 anonymous --Other-- Other First Leaf 39.165300000000000 -86.526400000000000 9835
Wed Mar 31 00:00:00 GMT 2010 anonymous --Other-- Other First Flower 39.165300000000000 -86.526400000000000 9836
Thu Apr 08 00:00:00 GMT 2010 anonymous --Other-- Other End of Flowering 39.165300000000000 -86.526400000000000 9837
Fri Feb 19 00:00:00 GMT 2010 anonymous --Other-- Other First Leaf 39.168300000000000 -86.524200000000000 9841
Tue Mar 02 00:00:00 GMT 2010 anonymous --Other-- Other All Leaves Unfolded 39.168300000000000 -86.524200000000000 9842
Thu Mar 25 00:00:00 GMT 2010 anonymous --Other-- Other First Flower 39.168300000000000 -86.524200000000000 9843
Tue Apr 06 00:00:00 GMT 2010 anonymous --Other-- Other Full Flower 39.168300000000000 -86.524200000000000 9844
Tue Mar 23 00:00:00 GMT 2010 anonymous --Other-- Other First Leaf 39.166600000000000 -86.503500000000000 9845
Tue Mar 23 00:00:00 GMT 2010 anonymous --Other-- Other All Leaves Unfolded 39.166600000000000 -86.503500000000000 9846
Tue Mar 23 00:00:00 GMT 2010 anonymous --Other-- Other First Flower 39.166600000000000 -86.503500000000000 9847
Tue Mar 23 00:00:00 GMT 2010 anonymous --Other-- Other Full Flower 39.166600000000000 -86.503500000000000 9848
Tue Mar 23 00:00:00 GMT 2010 anonymous --Other-- Other 50% Color 39.166600000000000 -86.503500000000000 9849
Tue Feb 16 00:00:00 GMT 2010 anonymous --Other-- Other 50% Leaf Fall 39.166600000000000 -86.503500000000000 9850
Sun Mar 14 00:00:00 GMT 2010 anonymous --Other-- Other First Leaf 39.800000000000000 -86.370000000000000 9853
Sun Apr 04 00:00:00 GMT 2010 anonymous --Other-- Other All Leaves Unfolded 39.800000000000000 -86.370000000000000 9854
Sun Mar 28 00:00:00 GMT 2010 anonymous --Other-- Other First Flower 39.800000000000000 -86.370000000000000 9855
Sun Apr 04 00:00:00 GMT 2010 anonymous --Other-- Other Full Flower 39.800000000000000 -86.370000000000000 9856
Sun Feb 28 00:00:00 GMT 2010 anonymous --Other-- Other End of Flowering 39.800000000000000 -86.370000000000000 9857
Wed Mar 24 00:00:00 GMT 2010 anonymous --Other-- Other First Leaf 39.174800000000000 -86.514900000000000 9890
Wed Apr 07 00:00:00 GMT 2010 anonymous --Other-- Other All Leaves Unfolded 39.174800000000000 -86.514900000000000 9891
Sun Apr 18 00:00:00 GMT 2010 anonymous --Other-- Other Full Flower 39.544800000000000 -104.592000000000000 9980
Wed Apr 21 00:00:00 GMT 2010 anonymous --Other-- Other First Leaf 46.878600000000000 -113.938000000000000 10022
Sun Apr 18 00:00:00 GMT 2010 anonymous --Other-- Other First Flower 40.512400000000000 -105.267000000000000 10017
Tue Apr 20 00:00:00 GMT 2010 anonymous --Other-- Other First Flower 40.512400000000000 -105.267000000000000 10018
Thu Apr 01 00:00:00 GMT 2010 anonymous --Other-- Other First Leaf 40.000000000000000 -105.000000000000000 10096
Wed Mar 03 00:00:00 GMT 2010 anonymous --Other-- Other First Leaf 38.550000000000000 -76.550000000000000 10129
Sat Apr 03 00:00:00 GMT 2010 anonymous --Other-- Other All Leaves Unfolded 38.550000000000000 -76.550000000000000 10130
Tue Mar 30 00:00:00 GMT 2010 anonymous --Other-- Other First Flower 38.550000000000000 -76.550000000000000 10131
Wed Mar 31 00:00:00 GMT 2010 anonymous --Other-- Other Full Flower 38.550000000000000 -76.550000000000000 10132
Tue Apr 06 00:00:00 GMT 2010 anonymous --Other-- Other End of Flowering 38.550000000000000 -76.550000000000000 10133
Wed Mar 03 00:00:00 GMT 2010 anonymous --Other-- Other First Leaf 38.550000000000000 -76.550000000000000 10123
Sat Apr 03 00:00:00 GMT 2010 anonymous --Other-- Other All Leaves Unfolded 38.550000000000000 -76.550000000000000 10124
Tue Mar 30 00:00:00 GMT 2010 anonymous --Other-- Other First Flower 38.550000000000000 -76.550000000000000 10125
Wed Mar 31 00:00:00 GMT 2010 anonymous --Other-- Other Full Flower 38.550000000000000 -76.550000000000000 10126
Tue Apr 06 00:00:00 GMT 2010 anonymous --Other-- Other End of Flowering 38.550000000000000 -76.550000000000000 10127
Sat Apr 17 00:00:00 GMT 2010 anonymous --Other-- Other First Leaf 38.222300000000000 -82.738000000000000 10161
Mon Apr 26 00:00:00 GMT 2010 anonymous --Other-- Other First Leaf 38.222300000000000 -82.738000000000000 10162
Thu Apr 15 00:00:00 GMT 2010 anonymous --Other-- Other First Leaf 38.222300000000000 -82.738000000000000 10163
Wed Apr 07 00:00:00 GMT 2010 anonymous --Other-- Other First Leaf 38.222300000000000 -82.738000000000000 10164
Mon Apr 26 00:00:00 GMT 2010 anonymous --Other-- Other First Leaf 38.222300000000000 -82.738000000000000 10165
Thu Apr 15 00:00:00 GMT 2010 anonymous --Other-- Other First Leaf 38.222300000000000 -82.738000000000000 10166
Tue Apr 27 00:00:00 GMT 2010 anonymous --Other-- Other First Leaf 38.222300000000000 -82.738000000000000 10167
Thu Apr 15 00:00:00 GMT 2010 anonymous --Other-- Other First Leaf 38.222300000000000 -82.738000000000000 10169
Thu Apr 15 00:00:00 GMT 2010 anonymous --Other-- Other First Leaf 38.222300000000000 -82.738000000000000 10168
Sun Apr 11 00:00:00 GMT 2010 anonymous --Other-- Other First Flower 44.469500000000000 -93.137800000000000 10290
Sun Apr 18 00:00:00 GMT 2010 anonymous --Other-- Other Full Flower 44.469500000000000 -93.137800000000000 10291
Mon Apr 26 00:00:00 GMT 2010 anonymous --Other-- Other End of Flowering 44.469500000000000 -93.137800000000000 10292
Fri Apr 09 00:00:00 GMT 2010 anonymous --Other-- Other First Flower 44.460000000000000 -93.180000000000000 10301
Sun Apr 11 00:00:00 GMT 2010 anonymous --Other-- Other Full Flower 44.460000000000000 -93.180000000000000 10302
Wed Apr 28 00:00:00 GMT 2010 anonymous --Other-- Other End of Flowering 44.460000000000000 -93.180000000000000 10303
Sun Apr 25 00:00:00 GMT 2010 anonymous --Other-- Other First Leaf 44.120000000000000 -93.720000000000000 10341
Sun Apr 11 00:00:00 GMT 2010 anonymous --Other-- Other First Flower 44.120000000000000 -93.720000000000000 10342
Sat Apr 17 00:00:00 GMT 2010 anonymous --Other-- Other Full Flower 44.120000000000000 -93.720000000000000 10343
Sun Apr 11 00:00:00 GMT 2010 anonymous --Other-- Other First Leaf 44.465000000000000 -93.188000000000000 10344
Sun Apr 25 00:00:00 GMT 2010 anonymous --Other-- Other First Flower 44.465000000000000 -93.188000000000000 10345
Mon May 03 00:00:00 GMT 2010 anonymous --Other-- Other Full Flower 44.465000000000000 -93.188000000000000 10346
Fri Apr 23 00:00:00 GMT 2010 anonymous --Other-- Other First Leaf 44.650000000000000 -93.440000000000000 10338
Mon Apr 05 00:00:00 GMT 2010 anonymous --Other-- Other First Flower 44.650000000000000 -93.440000000000000 10339
Sun Apr 11 00:00:00 GMT 2010 anonymous --Other-- Other Full Flower 44.650000000000000 -93.440000000000000 10340
Sat Apr 10 00:00:00 GMT 2010 anonymous --Other-- Other First Flower 44.460000000000000 -93.180000000000000 10347
Sat Apr 10 00:00:00 GMT 2010 anonymous --Other-- Other Full Flower 44.460000000000000 -93.180000000000000 10348
Sun Apr 04 00:00:00 GMT 2010 anonymous --Other-- Other First Leaf 41.725500000000000 -87.674500000000000 10463
Wed Apr 28 00:00:00 GMT 2010 anonymous --Other-- Other All Leaves Unfolded 41.725500000000000 -87.674500000000000 10464
Mon Mar 29 00:00:00 GMT 2010 anonymous --Other-- Other First Flower 41.725500000000000 -87.674500000000000 10409
Mon Mar 29 00:00:00 GMT 2010 anonymous --Other-- Other Full Flower 41.725500000000000 -87.674500000000000 10410
Sun Apr 11 00:00:00 GMT 2010 anonymous --Other-- Other End of Flowering 41.725500000000000 -87.674500000000000 10411
Thu Apr 01 00:00:00 GMT 2010 anonymous --Other-- Other First Flower 41.725500000000000 -87.674500000000000 10465
Thu Apr 22 00:00:00 GMT 2010 anonymous --Other-- Other Full Flower 41.725500000000000 -87.674500000000000 10466
Wed Apr 28 00:00:00 GMT 2010 anonymous --Other-- Other End of Flowering 41.725500000000000 -87.674500000000000 10467
Fri Apr 02 00:00:00 GMT 2010 anonymous --Other-- Other First Flower 41.725500000000000 -87.674500000000000 10468
Mon Apr 05 00:00:00 GMT 2010 anonymous --Other-- Other Full Flower 41.725500000000000 -87.674500000000000 10469
Thu May 06 00:00:00 GMT 2010 anonymous --Other-- Other End of Flowering 41.725500000000000 -87.674500000000000 10470
Wed Mar 31 00:00:00 GMT 2010 anonymous --Other-- Other First Flower 41.725500000000000 -87.674500000000000 10412
Thu Apr 08 00:00:00 GMT 2010 anonymous --Other-- Other Full Flower 41.725500000000000 -87.674500000000000 10413
Wed Apr 14 00:00:00 GMT 2010 anonymous --Other-- Other End of Flowering 41.725500000000000 -87.674500000000000 10414
Mon Apr 05 00:00:00 GMT 2010 anonymous --Other-- Other First Flower 41.725500000000000 -87.674500000000000 10415
Mon Apr 12 00:00:00 GMT 2010 anonymous --Other-- Other Full Flower 41.725500000000000 -87.674500000000000 10416
Fri Apr 23 00:00:00 GMT 2010 anonymous --Other-- Other End of Flowering 41.725500000000000 -87.674500000000000 10417
Sat Mar 13 00:00:00 GMT 2010 anonymous --Other-- Other First Flower 41.725500000000000 -87.674500000000000 10422
Thu Mar 18 00:00:00 GMT 2010 anonymous --Other-- Other Full Flower 41.725500000000000 -87.674500000000000 10423
Thu Apr 01 00:00:00 GMT 2010 anonymous --Other-- Other End of Flowering 41.725500000000000 -87.674500000000000 10424
Fri Mar 12 00:00:00 GMT 2010 anonymous --Other-- Other First Flower 41.725500000000000 -87.674500000000000 10425
Sun Mar 21 00:00:00 GMT 2010 anonymous --Other-- Other Full Flower 41.725500000000000 -87.674500000000000 10426
Tue Apr 27 00:00:00 GMT 2010 anonymous --Other-- Other End of Flowering 41.725500000000000 -87.674500000000000 10427
Sun Apr 11 00:00:00 GMT 2010 anonymous --Other-- Other First Flower 41.725500000000000 -87.674500000000000 10428
Tue Apr 13 00:00:00 GMT 2010 anonymous --Other-- Other Full Flower 41.725500000000000 -87.674500000000000 10429
Fri Apr 23 00:00:00 GMT 2010 anonymous --Other-- Other End of Flowering 41.725500000000000 -87.674500000000000 10430
Fri Apr 02 00:00:00 GMT 2010 anonymous --Other-- Other First Leaf 41.725500000000000 -87.674500000000000 10431
Sat Apr 10 00:00:00 GMT 2010 anonymous --Other-- Other All Leaves Unfolded 41.725500000000000 -87.674500000000000 10432
Thu Apr 01 00:00:00 GMT 2010 anonymous --Other-- Other First Flower 41.725500000000000 -87.674500000000000 10433
Fri Apr 09 00:00:00 GMT 2010 anonymous --Other-- Other Full Flower 41.725500000000000 -87.674500000000000 10434
Tue Apr 27 00:00:00 GMT 2010 anonymous --Other-- Other End of Flowering 41.725500000000000 -87.674500000000000 10435
Thu Apr 01 00:00:00 GMT 2010 anonymous --Other-- Other First Leaf 41.725500000000000 -87.674500000000000 10436
Wed Apr 28 00:00:00 GMT 2010 anonymous --Other-- Other End of Flowering 41.725500000000000 -87.674500000000000 10437
Thu Apr 29 00:00:00 GMT 2010 anonymous --Other-- Other First Leaf 41.725500000000000 -87.674500000000000 10438
Tue Apr 27 00:00:00 GMT 2010 anonymous --Other-- Other All Leaves Unfolded 41.725500000000000 -87.674500000000000 10439
Mon Mar 29 00:00:00 GMT 2010 anonymous --Other-- Other First Leaf 41.725500000000000 -87.674500000000000 10440
Mon Apr 05 00:00:00 GMT 2010 anonymous --Other-- Other All Leaves Unfolded 41.725500000000000 -87.674500000000000 10441
Thu Apr 01 00:00:00 GMT 2010 anonymous --Other-- Other First Flower 41.725500000000000 -87.674500000000000 10442
Thu Apr 08 00:00:00 GMT 2010 anonymous --Other-- Other Full Flower 41.725500000000000 -87.674500000000000 10443
Wed Apr 28 00:00:00 GMT 2010 anonymous --Other-- Other End of Flowering 41.725500000000000 -87.674500000000000 10444
Thu Apr 01 00:00:00 GMT 2010 anonymous --Other-- Other First Flower 41.725500000000000 -87.674500000000000 10445
Sun Apr 11 00:00:00 GMT 2010 anonymous --Other-- Other Full Flower 41.725500000000000 -87.674500000000000 10446
Wed Apr 28 00:00:00 GMT 2010 anonymous --Other-- Other End of Flowering 41.725500000000000 -87.674500000000000 10447
Sun Mar 07 00:00:00 GMT 2010 anonymous --Other-- Other First Flower 41.725500000000000 -87.674500000000000 10418
Sat Mar 20 00:00:00 GMT 2010 anonymous --Other-- Other Full Flower 41.725500000000000 -87.674500000000000 10419
Thu Apr 01 00:00:00 GMT 2010 anonymous --Other-- Other End of Flowering 41.725500000000000 -87.674500000000000 10420
Mon Mar 29 00:00:00 GMT 2010 anonymous --Other-- Other First Flower 41.725500000000000 -87.674500000000000 10471
Thu Apr 08 00:00:00 GMT 2010 anonymous --Other-- Other End of Flowering 41.725500000000000 -87.674500000000000 10472
Fri Apr 09 00:00:00 GMT 2010 anonymous --Other-- Other First Leaf 41.725500000000000 -87.674500000000000 10448
Mon Apr 12 00:00:00 GMT 2010 anonymous --Other-- Other All Leaves Unfolded 41.725500000000000 -87.674500000000000 10449
Thu Apr 01 00:00:00 GMT 2010 anonymous --Other-- Other First Flower 41.725500000000000 -87.675200000000000 10450
Sun Apr 11 00:00:00 GMT 2010 anonymous --Other-- Other Full Flower 41.725500000000000 -87.675200000000000 10451
Tue Apr 13 00:00:00 GMT 2010 anonymous --Other-- Other End of Flowering 41.725500000000000 -87.675200000000000 10452
Mon Mar 22 00:00:00 GMT 2010 anonymous --Other-- Other First Flower 41.725500000000000 -87.674500000000000 10453
Mon Mar 29 00:00:00 GMT 2010 anonymous --Other-- Other Full Flower 41.725500000000000 -87.674500000000000 10454
Thu Apr 01 00:00:00 GMT 2010 anonymous --Other-- Other End of Flowering 41.725500000000000 -87.674500000000000 10455
Mon Apr 05 00:00:00 GMT 2010 anonymous --Other-- Other First Flower 41.725500000000000 -87.674500000000000 10398
Mon May 03 00:00:00 GMT 2010 anonymous --Other-- Other Full Flower 41.725500000000000 -87.674500000000000 10399
Fri Apr 09 00:00:00 GMT 2010 anonymous --Other-- Other First Flower 41.725500000000000 -87.674500000000000 10400
Thu Apr 22 00:00:00 GMT 2010 anonymous --Other-- Other Full Flower 41.725500000000000 -87.674500000000000 10401
Sat May 01 00:00:00 GMT 2010 anonymous --Other-- Other End of Flowering 41.725500000000000 -87.674500000000000 10402
Fri Apr 02 00:00:00 GMT 2010 anonymous --Other-- Other First Leaf 41.725500000000000 -87.674500000000000 10456
Tue Apr 13 00:00:00 GMT 2010 anonymous --Other-- Other All Leaves Unfolded 41.725500000000000 -87.674500000000000 10457
Tue Apr 06 00:00:00 GMT 2010 anonymous --Other-- Other First Leaf 41.725500000000000 -87.674500000000000 10458
Sun Apr 11 00:00:00 GMT 2010 anonymous --Other-- Other All Leaves Unfolded 41.725500000000000 -87.674500000000000 10459
Sun Apr 11 00:00:00 GMT 2010 anonymous --Other-- Other First Flower 41.725500000000000 -87.674500000000000 10403
Mon Apr 19 00:00:00 GMT 2010 anonymous --Other-- Other Full Flower 41.725500000000000 -87.674500000000000 10404
Mon Apr 26 00:00:00 GMT 2010 anonymous --Other-- Other End of Flowering 41.725500000000000 -87.674500000000000 10405
Sun Mar 07 00:00:00 GMT 2010 anonymous --Other-- Other First Flower 41.725500000000000 -87.674500000000000 10406
Sat Mar 20 00:00:00 GMT 2010 anonymous --Other-- Other Full Flower 41.725500000000000 -87.674500000000000 10407
Thu Apr 01 00:00:00 GMT 2010 anonymous --Other-- Other End of Flowering 41.725500000000000 -87.674500000000000 10408
Thu Apr 01 00:00:00 GMT 2010 anonymous --Other-- Other First Flower 41.725500000000000 -87.674500000000000 10460
Sun Apr 11 00:00:00 GMT 2010 anonymous --Other-- Other Full Flower 41.725500000000000 -87.674500000000000 10461
Wed Apr 28 00:00:00 GMT 2010 anonymous --Other-- Other End of Flowering 41.725500000000000 -87.674500000000000 10462
Mon Mar 22 00:00:00 GMT 2010 anonymous --Other-- Other First Flower 41.725500000000000 -87.674500000000000 10473
Mon Mar 29 00:00:00 GMT 2010 anonymous --Other-- Other Full Flower 41.725500000000000 -87.674500000000000 10474
Thu Apr 01 00:00:00 GMT 2010 anonymous --Other-- Other End of Flowering 41.725500000000000 -87.674500000000000 10475
Wed Apr 07 00:00:00 GMT 2010 anonymous --Other-- Other First Flower 44.456800000000000 -93.185500000000000 10476
Mon Apr 19 00:00:00 GMT 2010 anonymous --Other-- Other Full Flower 44.456800000000000 -93.185500000000000 10477
Wed Apr 07 00:00:00 GMT 2010 anonymous --Other-- Other First Flower 44.457000000000000 -93.183800000000000 10478
Mon Apr 19 00:00:00 GMT 2010 anonymous --Other-- Other Full Flower 44.457000000000000 -93.183800000000000 10479
Fri Apr 16 00:00:00 GMT 2010 anonymous --Other-- Other First Leaf 39.373600000000000 -82.129400000000000 10369
Tue May 04 00:00:00 GMT 2010 anonymous --Other-- Other All Leaves Unfolded 39.373600000000000 -82.129400000000000 10370
Wed Mar 10 00:00:00 GMT 2010 anonymous --Other-- Other First Leaf 41.725500000000000 -87.674500000000000 10373
Fri Apr 02 00:00:00 GMT 2010 anonymous --Other-- Other All Leaves Unfolded 41.725500000000000 -87.674500000000000 10374
Wed Mar 10 00:00:00 GMT 2010 anonymous --Other-- Other First Flower 41.725500000000000 -87.674500000000000 10375
Wed Mar 24 00:00:00 GMT 2010 anonymous --Other-- Other Full Flower 41.725500000000000 -87.674500000000000 10376
Thu Apr 01 00:00:00 GMT 2010 anonymous --Other-- Other End of Flowering 41.725500000000000 -87.674500000000000 10377
Thu Apr 01 00:00:00 GMT 2010 anonymous --Other-- Other First Leaf 41.725500000000000 -87.674500000000000 10378
Sun Apr 11 00:00:00 GMT 2010 anonymous --Other-- Other All Leaves Unfolded 41.725500000000000 -87.674500000000000 10379
Fri Apr 02 00:00:00 GMT 2010 anonymous --Other-- Other First Flower 41.725500000000000 -87.674500000000000 10380
Mon Apr 05 00:00:00 GMT 2010 anonymous --Other-- Other Full Flower 41.725500000000000 -87.674500000000000 10381
Sun Apr 11 00:00:00 GMT 2010 anonymous --Other-- Other End of Flowering 41.725500000000000 -87.674500000000000 10382
Wed Apr 14 00:00:00 GMT 2010 anonymous --Other-- Other First Leaf 41.725500000000000 -87.674500000000000 10383
Thu Apr 01 00:00:00 GMT 2010 anonymous --Other-- Other All Leaves Unfolded 41.725500000000000 -87.674500000000000 10384
Wed Apr 14 00:00:00 GMT 2010 anonymous --Other-- Other First Flower 41.725500000000000 -87.674500000000000 10385
Wed Apr 14 00:00:00 GMT 2010 anonymous --Other-- Other Full Flower 41.725500000000000 -87.674500000000000 10386
Tue Apr 27 00:00:00 GMT 2010 anonymous --Other-- Other End of Flowering 41.725500000000000 -87.674500000000000 10387
Mon Apr 12 00:00:00 GMT 2010 anonymous --Other-- Other First Leaf 41.725500000000000 -87.674500000000000 10388
Fri Apr 30 00:00:00 GMT 2010 anonymous --Other-- Other All Leaves Unfolded 41.725500000000000 -87.674500000000000 10389
Fri Mar 05 00:00:00 GMT 2010 anonymous --Other-- Other First Leaf 41.725500000000000 -87.674500000000000 10390
Fri Apr 09 00:00:00 GMT 2010 anonymous --Other-- Other All Leaves Unfolded 41.725500000000000 -87.674500000000000 10391
Mon Apr 05 00:00:00 GMT 2010 anonymous --Other-- Other First Flower 41.725500000000000 -87.674500000000000 10392
Wed Apr 14 00:00:00 GMT 2010 anonymous --Other-- Other Full Flower 41.725500000000000 -87.674500000000000 10393
Tue Apr 20 00:00:00 GMT 2010 anonymous --Other-- Other End of Flowering 41.725500000000000 -87.674500000000000 10394
Mon Mar 15 00:00:00 GMT 2010 anonymous --Other-- Other First Flower 41.725500000000000 -87.674500000000000 10395
Mon Mar 22 00:00:00 GMT 2010 anonymous --Other-- Other Full Flower 41.725500000000000 -87.674500000000000 10396
Tue Apr 20 00:00:00 GMT 2010 anonymous --Other-- Other End of Flowering 41.725500000000000 -87.674500000000000 10397
Wed May 05 00:00:00 GMT 2010 anonymous --Other-- Other All Leaves Unfolded 39.373600000000000 -82.129400000000000 10371
Wed May 05 00:00:00 GMT 2010 anonymous --Other-- Other All Leaves Unfolded 39.372100000000000 -82.128700000000000 10372
Tue Apr 20 00:00:00 GMT 2010 anonymous --Other-- Other First Leaf 44.460000000000000 -93.182000000000000 10534
Fri May 07 00:00:00 GMT 2010 anonymous --Other-- Other All Leaves Unfolded 44.460000000000000 -93.182000000000000 10535
Sun Apr 18 00:00:00 GMT 2010 anonymous --Other-- Other First Leaf 44.460000000000000 -93.190000000000000 10546
Tue Apr 20 00:00:00 GMT 2010 anonymous --Other-- Other All Leaves Unfolded 44.460000000000000 -93.190000000000000 10547
Mon Apr 12 00:00:00 GMT 2010 anonymous --Other-- Other First Flower 44.460000000000000 -93.190000000000000 10548
Wed Apr 14 00:00:00 GMT 2010 anonymous --Other-- Other Full Flower 44.460000000000000 -93.190000000000000 10549
Mon Apr 19 00:00:00 GMT 2010 anonymous --Other-- Other First Leaf 44.460000000000000 -93.183000000000000 10580
Sat Apr 24 00:00:00 GMT 2010 anonymous --Other-- Other All Leaves Unfolded 44.460000000000000 -93.183000000000000 10581
Tue Apr 20 00:00:00 GMT 2010 anonymous --Other-- Other First Leaf 44.462000000000000 -93.185000000000000 10578
Fri Apr 23 00:00:00 GMT 2010 anonymous --Other-- Other All Leaves Unfolded 44.462000000000000 -93.185000000000000 10579
Wed Jul 07 00:00:00 GMT 2010 jross --Other-- Other First Flower 42.142800000000000 -87.789500000000000 11025
Tue Apr 27 00:00:00 GMT 2010 anonymous --Other-- Other First Leaf 43.444800000000000 -84.011000000000000 11135
Sun Jun 27 00:00:00 GMT 2010 anonymous --Other-- Other All Leaves Unfolded 43.444800000000000 -84.011000000000000 11136
Tue Aug 10 00:00:00 GMT 2010 anonymous --Other-- Other First Flower 43.444800000000000 -84.011000000000000 11137
Sun Apr 04 00:00:00 GMT 2010 srulison --Other-- Other All Leaves Unfolded 37.540000000000000 -75.920000000000000 11182
Wed Apr 28 00:00:00 GMT 2010 srulison --Other-- Other First Flower 37.540000000000000 -75.920000000000000 11183
Tue May 04 00:00:00 GMT 2010 srulison --Other-- Other Full Flower 37.540000000000000 -75.920000000000000 11184
Thu Mar 25 00:00:00 GMT 2010 srulison --Other-- Other First Leaf 37.540000000000000 -75.920000000000000 11181
Fri Sep 24 00:00:00 GMT 2010 anonymous --Other-- Other End of Flowering 34.153700000000000 -118.154000000000000 11236
Wed Sep 01 00:00:00 GMT 2010 anonymous --Other-- Other First Leaf 34.153700000000000 -118.154000000000000 11354
Mon Jun 14 00:00:00 GMT 2010 anonymous --Other-- Other All Leaves Unfolded 34.153700000000000 -118.154000000000000 11353
Tue Nov 02 00:00:00 GMT 2010 annawilder --Other-- Other 50% Color 38.949000000000000 -77.077000000000000 11402
Tue Nov 02 00:00:00 GMT 2010 anonymous --Other-- Other 50% Color 38.596100000000000 -76.502500000000000 11403
Tue Nov 02 00:00:00 GMT 2010 e141026 --Other-- Other All Leaves Unfolded 30.190800000000000 -97.829100000000000 11410
Thu Oct 14 00:00:00 GMT 2010 anonymous --Other-- Other 50% Leaf Fall 41.755400000000000 -73.337200000000000 11435
Sat Oct 09 00:00:00 GMT 2010 anonymous --Other-- Other 50% Color 41.755400000000000 -73.337200000000000 11431
Sat Oct 16 00:00:00 GMT 2010 anonymous --Other-- Other 50% Leaf Fall 41.755400000000000 -73.337200000000000 11432
Mon Oct 31 00:00:00 GMT 2016 rshuman --Other-- Other Leaves Unfolding (None) 44.686760000000000 -73.719410000000000 71947
Mon Oct 31 00:00:00 GMT 2016 rshuman --Other-- Other Leaves Changing Color (Late) 44.686760000000000 -73.719410000000000 71948
Mon Oct 31 00:00:00 GMT 2016 rshuman --Other-- Other Leaves Dropping (Middle) 44.686760000000000 -73.719410000000000 71949
Mon Oct 31 00:00:00 GMT 2016 rshuman --Other-- Other Leaves Unfolding (None) 44.686760000000000 -73.719410000000000 71950
Mon Oct 31 00:00:00 GMT 2016 rshuman --Other-- Other Flowers (None) 44.686760000000000 -73.719410000000000 71951
Mon Oct 31 00:00:00 GMT 2016 rshuman --Other-- Other Leaves Changing Color (Late) 44.686760000000000 -73.719410000000000 71952
Mon Oct 31 00:00:00 GMT 2016 rshuman --Other-- Other Fruit (None) 44.686760000000000 -73.719410000000000 71953
Mon Oct 31 00:00:00 GMT 2016 rshuman --Other-- Other Leaves Dropping (Middle) 44.686760000000000 -73.719410000000000 71954
Mon Oct 31 00:00:00 GMT 2016 rshuman --Other-- Other Flowers (None) 44.686760000000000 -73.719410000000000 71955
Mon Oct 31 00:00:00 GMT 2016 rshuman --Other-- Other Fruit (None) 44.686760000000000 -73.719410000000000 71956

*All downloadable materials require the free Adobe Reader.